Observation data for Palo Duro Reservoir 1NW on 07/07/2020      Previous  Date  Next       Current Mesonet Observations  Soil Data  Daily Summary Page  Observations in Plain Language
KPD4 070500Z 18006KT 23/18 A3006 RMK A01 T02320180  RH  073%=      5-min Rain = 0
KPD4 070501Z 18006KT 23/18 A3006 RMK A01 T02320180  RH  073%=      5-min Rain = 0
KPD4 070502Z 18006KT 23/18 A3006 RMK A01 T02310180  RH  073%=      5-min Rain = 0
KPD4 070503Z 18006KT 23/18 A3006 RMK A01 T02300179  RH  073%=      5-min Rain = 0
KPD4 070504Z 18006KT 23/18 A3006 RMK A01 T02300180  RH  073%=      5-min Rain = 0
KPD4 070505Z 18006KT 23/18 A3006 RMK A01 T02290179  RH  074%=      5-min Rain = 0
KPD4 070506Z 18006KT 23/18 A3006 RMK A01 T02290180  RH  074%=      5-min Rain = 0
KPD4 070507Z 18006KT 23/18 A3006 RMK A01 T02290180  RH  074%=      5-min Rain = 0
KPD4 070508Z 19006KT 23/18 A3006 RMK A01 T02290180  RH  074%=      5-min Rain = 0
KPD4 070509Z 19006KT 23/18 A3006 RMK A01 T02290180  RH  074%=      5-min Rain = 0
KPD4 070510Z 19006KT 23/18 A3006 RMK A01 T02290180  RH  074%=      5-min Rain = 0
KPD4 070511Z 20006KT 23/18 A3006 RMK A01 T02280179  RH  074%=      5-min Rain = 0
KPD4 070512Z 19006KT 23/18 A3006 RMK A01 T02270179  RH  074%=      5-min Rain = 0
KPD4 070513Z 19006KT 23/18 A3006 RMK A01 T02260179  RH  075%=      5-min Rain = 0
KPD4 070514Z 19006KT 23/18 A3006 RMK A01 T02260179  RH  075%=      5-min Rain = 0
KPD4 070515Z 19006KT 23/18 A3006 RMK A01 T02250179  RH  075%=      5-min Rain = 0
KPD4 070516Z 19006KT 23/18 A3006 RMK A01 T02250179  RH  075%=      5-min Rain = 0
KPD4 070517Z 19006KT 23/18 A3006 RMK A01 T02260179  RH  075%=      5-min Rain = 0
KPD4 070518Z 19006KT 23/18 A3006 RMK A01 T02260179  RH  075%=      5-min Rain = 0
KPD4 070519Z 19006KT 23/18 A3006 RMK A01 T02260179  RH  075%=      5-min Rain = 0
KPD4 070520Z 19006KT 23/18 A3006 RMK A01 T02260179  RH  075%=      5-min Rain = 0
KPD4 070521Z 19006KT 23/18 A3006 RMK A01 T02250179  RH  075%=      5-min Rain = 0
KPD4 070522Z 19006KT 22/18 A3006 RMK A01 T02240179  RH  075%=      5-min Rain = 0
KPD4 070523Z 19006KT 22/18 A3006 RMK A01 T02240179  RH  075%=      5-min Rain = 0
KPD4 070524Z 19006KT 22/18 A3006 RMK A01 T02240179  RH  075%=      5-min Rain = 0
KPD4 070525Z 19006KT 23/18 A3006 RMK A01 T02250179  RH  075%=      5-min Rain = 0
KPD4 070526Z 19006KT 23/18 A3006 RMK A01 T02250179  RH  075%=      5-min Rain = 0
KPD4 070527Z 19006KT 23/18 A3006 RMK A01 T02250179  RH  075%=      5-min Rain = 0
KPD4 070528Z 19006KT 23/18 A3006 RMK A01 T02250179  RH  075%=      5-min Rain = 0
KPD4 070529Z 19006KT 23/18 A3006 RMK A01 T02260179  RH  075%=      5-min Rain = 0
KPD4 070530Z 19007KT 23/18 A3006 RMK A01 T02250179  RH  075%=      5-min Rain = 0
KPD4 070531Z 19007KT 23/18 A3006 RMK A01 T02250179  RH  075%=      5-min Rain = 0
KPD4 070532Z 19007KT 23/18 A3006 RMK A01 T02250179  RH  075%=      5-min Rain = 0
KPD4 070533Z 18007KT 23/18 A3006 RMK A01 T02260179  RH  075%=      5-min Rain = 0
KPD4 070534Z 18007KT 23/18 A3006 RMK A01 T02260179  RH  075%=      5-min Rain = 0
KPD4 070535Z 18006KT 23/18 A3006 RMK A01 T02260179  RH  075%=      5-min Rain = 0
KPD4 070536Z 18007KT 23/18 A3006 RMK A01 T02260179  RH  075%=      5-min Rain = 0
KPD4 070537Z 18007KT 23/18 A3006 RMK A01 T02260179  RH  075%=      5-min Rain = 0
KPD4 070538Z 18007KT 23/18 A3006 RMK A01 T02260179  RH  075%=      5-min Rain = 0
KPD4 070539Z 18007KT 23/18 A3006 RMK A01 T02260179  RH  075%=      5-min Rain = 0
KPD4 070540Z 19007KT 23/18 A3006 RMK A01 T02260179  RH  075%=      5-min Rain = 0
KPD4 070541Z 19006KT 23/18 A3006 RMK A01 T02260179  RH  075%=      5-min Rain = 0
KPD4 070542Z 19005KT 23/18 A3006 RMK A01 T02250179  RH  075%=      5-min Rain = 0
KPD4 070543Z 19005KT 22/18 A3006 RMK A01 T02240178  RH  075%=      5-min Rain = 0
KPD4 070544Z 19005KT 22/18 A3006 RMK A01 T02230178  RH  076%=      5-min Rain = 0
KPD4 070545Z 20004KT 22/18 A3006 RMK A01 T02220178  RH  076%=      5-min Rain = 0
KPD4 070546Z 20004KT 22/18 A3006 RMK A01 T02210177  RH  076%=      5-min Rain = 0
KPD4 070547Z 20004KT 22/18 A3006 RMK A01 T02200177  RH  076%=      5-min Rain = 0
KPD4 070548Z 20004KT 22/18 A3006 RMK A01 T02200177  RH  077%=      5-min Rain = 0
KPD4 070549Z 20004KT 22/18 A3006 RMK A01 T02200178  RH  077%=      5-min Rain = 0
KPD4 070550Z 20004KT 22/18 A3006 RMK A01 T02200178  RH  077%=      5-min Rain = 0
KPD4 070551Z 20004KT 22/18 A3006 RMK A01 T02200178  RH  077%=      5-min Rain = 0
KPD4 070552Z 19004KT 22/18 A3006 RMK A01 T02210178  RH  077%=      5-min Rain = 0
KPD4 070553Z 19005KT 22/18 A3006 RMK A01 T02210177  RH  076%=      5-min Rain = 0
KPD4 070554Z 19005KT 22/18 A3006 RMK A01 T02210177  RH  076%=      5-min Rain = 0
KPD4 070555Z 19005KT 22/18 A3006 RMK A01 T02210176  RH  076%=      5-min Rain = 0
KPD4 070556Z 19004KT 22/18 A3006 RMK A01 T02210176  RH  076%=      5-min Rain = 0
KPD4 070557Z 19005KT 22/18 A3006 RMK A01 T02210177  RH  076%=      5-min Rain = 0
KPD4 070558Z 19004KT 22/18 A3006 RMK A01 T02210177  RH  076%=      5-min Rain = 0
KPD4 070559Z 19004KT 22/18 A3006 RMK A01 T02210177  RH  076%=      5-min Rain = 0
KPD4 070600Z 19004KT 22/18 A3006 RMK A01 T02210177  RH  076%=      5-min Rain = 0
KPD4 070601Z 19004KT 22/18 A3006 RMK A01 T02210177  RH  076%=      5-min Rain = 0
KPD4 070602Z 20004KT 22/18 A3006 RMK A01 T02210177  RH  076%=      5-min Rain = 0
KPD4 070603Z 20004KT 22/18 A3006 RMK A01 T02210177  RH  076%=      5-min Rain = 0
KPD4 070604Z 20004KT 22/18 A3006 RMK A01 T02200176  RH  076%=      5-min Rain = 0
KPD4 070605Z 20005KT 22/18 A3006 RMK A01 T02190175  RH  076%=      5-min Rain = 0
KPD4 070606Z 20005KT 22/18 A3006 RMK A01 T02180176  RH  077%=      5-min Rain = 0
KPD4 070607Z 20004KT 22/18 A3006 RMK A01 T02180176  RH  077%=      5-min Rain = 0
KPD4 070608Z 20004KT 22/18 A3006 RMK A01 T02170176  RH  077%=      5-min Rain = 0
KPD4 070609Z 20004KT 22/18 A3006 RMK A01 T02170176  RH  077%=      5-min Rain = 0
KPD4 070610Z 20005KT 22/18 A3006 RMK A01 T02170176  RH  077%=      5-min Rain = 0
KPD4 070611Z 20005KT 22/18 A3006 RMK A01 T02170176  RH  077%=      5-min Rain = 0
KPD4 070612Z 20005KT 22/18 A3006 RMK A01 T02170176  RH  077%=      5-min Rain = 0
KPD4 070613Z 20005KT 22/18 A3006 RMK A01 T02170176  RH  077%=      5-min Rain = 0
KPD4 070614Z 19005KT 22/18 A3006 RMK A01 T02170176  RH  077%=      5-min Rain = 0
KPD4 070615Z 19005KT 22/18 A3006 RMK A01 T02170176  RH  077%=      5-min Rain = 0
KPD4 070616Z 19005KT 22/18 A3006 RMK A01 T02170176  RH  078%=      5-min Rain = 0
KPD4 070617Z 19005KT 22/18 A3006 RMK A01 T02170176  RH  078%=      5-min Rain = 0
KPD4 070618Z 19005KT 22/18 A3006 RMK A01 T02160176  RH  078%=      5-min Rain = 0
KPD4 070619Z 19005KT 22/18 A3006 RMK A01 T02160176  RH  078%=      5-min Rain = 0
KPD4 070620Z 19005KT 22/18 A3006 RMK A01 T02160176  RH  078%=      5-min Rain = 0
KPD4 070621Z 19005KT 22/18 A3006 RMK A01 T02150176  RH  078%=      5-min Rain = 0
KPD4 070622Z 19006KT 22/18 A3006 RMK A01 T02150176  RH  078%=      5-min Rain = 0
KPD4 070623Z 19006KT 21/18 A3006 RMK A01 T02140176  RH  079%=      5-min Rain = 0
KPD4 070624Z 19006KT 21/18 A3006 RMK A01 T02140176  RH  079%=      5-min Rain = 0
KPD4 070625Z 19006KT 21/18 A3006 RMK A01 T02140176  RH  079%=      5-min Rain = 0
KPD4 070626Z 19006KT 21/18 A3006 RMK A01 T02140176  RH  079%=      5-min Rain = 0
KPD4 070627Z 19006KT 21/18 A3006 RMK A01 T02140176  RH  079%=      5-min Rain = 0
KPD4 070628Z 19006KT 21/18 A3006 RMK A01 T02140177  RH  079%=      5-min Rain = 0
KPD4 070629Z 19006KT 21/18 A3006 RMK A01 T02140177  RH  079%=      5-min Rain = 0
KPD4 070630Z 19006KT 21/18 A3006 RMK A01 T02130176  RH  079%=      5-min Rain = 0
KPD4 070631Z 19006KT 21/18 A3006 RMK A01 T02130176  RH  079%=      5-min Rain = 0
KPD4 070632Z 19006KT 21/18 A3006 RMK A01 T02130176  RH  080%=      5-min Rain = 0
KPD4 070633Z 19006KT 21/18 A3006 RMK A01 T02120176  RH  080%=      5-min Rain = 0
KPD4 070634Z 19006KT 21/18 A3006 RMK A01 T02120176  RH  080%=      5-min Rain = 0
KPD4 070635Z 18006KT 21/18 A3006 RMK A01 T02120176  RH  080%=      5-min Rain = 0
KPD4 070636Z 19006KT 21/18 A3006 RMK A01 T02120177  RH  080%=      5-min Rain = 0
KPD4 070637Z 19006KT 21/18 A3006 RMK A01 T02130177  RH  080%=      5-min Rain = 0
KPD4 070638Z 19006KT 21/18 A3006 RMK A01 T02130177  RH  080%=      5-min Rain = 0
KPD4 070639Z 19006KT 21/18 A3006 RMK A01 T02140177  RH  080%=      5-min Rain = 0
KPD4 070640Z 19006KT 21/18 A3006 RMK A01 T02140177  RH  080%=      5-min Rain = 0
KPD4 070641Z 19006KT 21/18 A3006 RMK A01 T02140177  RH  080%=      5-min Rain = 0
KPD4 070642Z 19006KT 21/18 A3006 RMK A01 T02140177  RH  080%=      5-min Rain = 0
KPD4 070643Z 19006KT 21/18 A3006 RMK A01 T02140178  RH  080%=      5-min Rain = 0
KPD4 070644Z 19006KT 21/18 A3006 RMK A01 T02140178  RH  080%=      5-min Rain = 0
KPD4 070645Z 19006KT 21/18 A3006 RMK A01 T02140178  RH  080%=      5-min Rain = 0
KPD4 070646Z 19006KT 21/18 A3006 RMK A01 T02140178  RH  080%=      5-min Rain = 0
KPD4 070647Z 18006KT 21/18 A3006 RMK A01 T02140178  RH  080%=      5-min Rain = 0
KPD4 070648Z 18006KT 21/18 A3006 RMK A01 T02140178  RH  080%=      5-min Rain = 0
KPD4 070649Z 18007KT 21/18 A3006 RMK A01 T02140178  RH  080%=      5-min Rain = 0
KPD4 070650Z 18007KT 21/18 A3006 RMK A01 T02130177  RH  080%=      5-min Rain = 0
KPD4 070651Z 18007KT 21/18 A3006 RMK A01 T02130178  RH  080%=      5-min Rain = 0
KPD4 070652Z 18007KT 21/18 A3006 RMK A01 T02130178  RH  080%=      5-min Rain = 0
KPD4 070653Z 18006KT 21/18 A3006 RMK A01 T02130178  RH  080%=      5-min Rain = 0
KPD4 070654Z 18006KT 21/18 A3006 RMK A01 T02130178  RH  080%=      5-min Rain = 0
KPD4 070655Z 18006KT 21/18 A3006 RMK A01 T02130178  RH  080%=      5-min Rain = 0
KPD4 070656Z 18006KT 21/18 A3006 RMK A01 T02120177  RH  080%=      5-min Rain = 0
KPD4 070657Z 18006KT 21/18 A3006 RMK A01 T02120177  RH  081%=      5-min Rain = 0
KPD4 070658Z 18006KT 21/18 A3006 RMK A01 T02110177  RH  081%=      5-min Rain = 0
KPD4 070659Z 18006KT 21/18 A3006 RMK A01 T02110177  RH  081%=      5-min Rain = 0
KPD4 070700Z 18006KT 21/18 A3006 RMK A01 T02110177  RH  081%=      5-min Rain = 0
KPD4 070701Z 18006KT 21/18 A3006 RMK A01 T02110177  RH  081%=      5-min Rain = 0
KPD4 070702Z 18006KT 21/18 A3006 RMK A01 T02110177  RH  081%=      5-min Rain = 0
KPD4 070703Z 18005KT 21/18 A3006 RMK A01 T02110177  RH  081%=      5-min Rain = 0
KPD4 070704Z 18005KT 21/18 A3006 RMK A01 T02110177  RH  081%=      5-min Rain = 0
KPD4 070705Z 19006KT 21/18 A3006 RMK A01 T02100177  RH  081%=      5-min Rain = 0
KPD4 070706Z 19005KT 21/18 A3006 RMK A01 T02100177  RH  081%=      5-min Rain = 0
KPD4 070707Z 19005KT 21/18 A3006 RMK A01 T02100177  RH  081%=      5-min Rain = 0
KPD4 070708Z 19005KT 21/18 A3006 RMK A01 T02090177  RH  081%=      5-min Rain = 0
KPD4 070709Z 20004KT 21/18 A3006 RMK A01 T02090176  RH  081%=      5-min Rain = 0
KPD4 070710Z 20004KT 21/18 A3006 RMK A01 T02080175  RH  082%=      5-min Rain = 0
KPD4 070711Z 20004KT 21/18 A3006 RMK A01 T02070175  RH  082%=      5-min Rain = 0
KPD4 070712Z 20004KT 21/18 A3006 RMK A01 T02070175  RH  082%=      5-min Rain = 0
KPD4 070713Z 19004KT 21/18 A3006 RMK A01 T02060176  RH  083%=      5-min Rain = 0
KPD4 070714Z 19004KT 21/18 A3006 RMK A01 T02070176  RH  083%=      5-min Rain = 0
KPD4 070715Z 20004KT 21/18 A3006 RMK A01 T02060176  RH  083%=      5-min Rain = 0
KPD4 070716Z 20004KT 21/18 A3006 RMK A01 T02060176  RH  083%=      5-min Rain = 0
KPD4 070717Z 19004KT 21/18 A3006 RMK A01 T02060175  RH  082%=      5-min Rain = 0
KPD4 070718Z 20004KT 21/18 A3006 RMK A01 T02060176  RH  082%=      5-min Rain = 0
KPD4 070719Z 20004KT 21/18 A3006 RMK A01 T02060175  RH  083%=      5-min Rain = 0
KPD4 070720Z 20004KT 21/18 A3006 RMK A01 T02060176  RH  083%=      5-min Rain = 0
KPD4 070721Z 19004KT 21/18 A3006 RMK A01 T02060175  RH  083%=      5-min Rain = 0
KPD4 070722Z 19004KT 21/18 A3006 RMK A01 T02050175  RH  083%=      5-min Rain = 0
KPD4 070723Z 20004KT 21/18 A3006 RMK A01 T02050176  RH  083%=      5-min Rain = 0
KPD4 070724Z 19004KT 21/18 A3006 RMK A01 T02060176  RH  083%=      5-min Rain = 0
KPD4 070725Z 19004KT 21/18 A3006 RMK A01 T02060176  RH  083%=      5-min Rain = 0
KPD4 070726Z 18004KT 21/18 A3006 RMK A01 T02060176  RH  083%=      5-min Rain = 0
KPD4 070727Z 18004KT 21/18 A3006 RMK A01 T02060176  RH  083%=      5-min Rain = 0
KPD4 070728Z 17004KT 21/18 A3006 RMK A01 T02070176  RH  083%=      5-min Rain = 0
KPD4 070729Z 17004KT 21/18 A3006 RMK A01 T02070176  RH  083%=      5-min Rain = 0
KPD4 070730Z 17004KT 21/18 A3006 RMK A01 T02080177  RH  082%=      5-min Rain = 0
KPD4 070731Z 16004KT 21/18 A3006 RMK A01 T02080176  RH  082%=      5-min Rain = 0
KPD4 070732Z 16005KT 21/18 A3006 RMK A01 T02080176  RH  082%=      5-min Rain = 0
KPD4 070733Z 16004KT 21/18 A3006 RMK A01 T02070176  RH  082%=      5-min Rain = 0
KPD4 070734Z 16005KT 21/18 A3006 RMK A01 T02060176  RH  083%=      5-min Rain = 0
KPD4 070735Z 15005KT 21/18 A3006 RMK A01 T02050176  RH  083%=      5-min Rain = 0
KPD4 070736Z 15005KT 21/18 A3006 RMK A01 T02050175  RH  083%=      5-min Rain = 0
KPD4 070737Z 15006KT 20/18 A3006 RMK A01 T02040175  RH  083%=      5-min Rain = 0
KPD4 070738Z 15006KT 20/18 A3006 RMK A01 T02030175  RH  084%=      5-min Rain = 0
KPD4 070739Z 15006KT 20/18 A3006 RMK A01 T02030175  RH  084%=      5-min Rain = 0
KPD4 070740Z 15006KT 20/18 A3006 RMK A01 T02020175  RH  085%=      5-min Rain = 0
KPD4 070741Z 15006KT 20/18 A3006 RMK A01 T02010175  RH  085%=      5-min Rain = 0
KPD4 070742Z 15006KT 20/18 A3006 RMK A01 T02010176  RH  085%=      5-min Rain = 0
KPD4 070743Z 15006KT 20/18 A3006 RMK A01 T02010176  RH  085%=      5-min Rain = 0
KPD4 070744Z 15007KT 20/18 A3006 RMK A01 T02010176  RH  086%=      5-min Rain = 0
KPD4 070745Z 16006KT 20/18 A3006 RMK A01 T02010176  RH  086%=      5-min Rain = 0
KPD4 070746Z 16006KT 20/18 A3006 RMK A01 T02010177  RH  086%=      5-min Rain = 0
KPD4 070747Z 17006KT 20/18 A3006 RMK A01 T02020177  RH  086%=      5-min Rain = 0
KPD4 070748Z 18006KT 20/18 A3006 RMK A01 T02020177  RH  085%=      5-min Rain = 0
KPD4 070749Z 18006KT 20/18 A3006 RMK A01 T02030177  RH  085%=      5-min Rain = 0
KPD4 070750Z 18006KT 20/18 A3006 RMK A01 T02030177  RH  085%=      5-min Rain = 0
KPD4 070751Z 18006KT 20/18 A3006 RMK A01 T02020176  RH  085%=      5-min Rain = 0
KPD4 070752Z 18006KT 20/18 A3006 RMK A01 T02020176  RH  085%=      5-min Rain = 0
KPD4 070753Z 18006KT 20/18 A3006 RMK A01 T02010177  RH  086%=      5-min Rain = 0
KPD4 070754Z 18006KT 20/18 A3006 RMK A01 T02010176  RH  086%=      5-min Rain = 0
KPD4 070755Z 18005KT 20/18 A3006 RMK A01 T02010176  RH  085%=      5-min Rain = 0
KPD4 070756Z 18005KT 20/18 A3006 RMK A01 T02010176  RH  085%=      5-min Rain = 0
KPD4 070757Z 18005KT 20/18 A3006 RMK A01 T02010176  RH  085%=      5-min Rain = 0
KPD4 070758Z 18005KT 20/18 A3006 RMK A01 T02010177  RH  086%=      5-min Rain = 0
KPD4 070759Z 17005KT 20/18 A3006 RMK A01 T02010177  RH  086%=      5-min Rain = 0
KPD4 070800Z 16006KT 20/18 A3006 RMK A01 T02020177  RH  086%=      5-min Rain = 0
KPD4 070801Z 16006KT 20/18 A3006 RMK A01 T02020178  RH  086%=      5-min Rain = 0
KPD4 070802Z 16006KT 20/18 A3006 RMK A01 T02020177  RH  086%=      5-min Rain = 0
KPD4 070803Z 16007KT 20/18 A3006 RMK A01 T02020178  RH  086%=      5-min Rain = 0
KPD4 070804Z 15006KT 20/18 A3006 RMK A01 T02020178  RH  086%=      5-min Rain = 0
KPD4 070805Z 16006KT 20/18 A3006 RMK A01 T02020177  RH  086%=      5-min Rain = 0
KPD4 070806Z 16007KT 20/18 A3006 RMK A01 T02020178  RH  086%=      5-min Rain = 0
KPD4 070807Z 17007KT 20/18 A3006 RMK A01 T02020178  RH  086%=      5-min Rain = 0
KPD4 070808Z 18006KT 20/18 A3006 RMK A01 T02020178  RH  086%=      5-min Rain = 0
KPD4 070809Z 19006KT 20/18 A3006 RMK A01 T02020178  RH  086%=      5-min Rain = 0
KPD4 070810Z 19005KT 20/18 A3006 RMK A01 T02020178  RH  086%=      5-min Rain = 0
KPD4 070811Z 19005KT 20/18 A3006 RMK A01 T02010177  RH  086%=      5-min Rain = 0
KPD4 070812Z 19005KT 20/18 A3006 RMK A01 T02000177  RH  086%=      5-min Rain = 0
KPD4 070813Z 18005KT 20/18 A3006 RMK A01 T02000177  RH  087%=      5-min Rain = 0
KPD4 070814Z 18006KT 20/18 A3006 RMK A01 T02000177  RH  087%=      5-min Rain = 0
KPD4 070815Z 18006KT 20/18 A3006 RMK A01 T02000177  RH  087%=      5-min Rain = 0
KPD4 070816Z 18006KT 20/18 A3006 RMK A01 T02000177  RH  087%=      5-min Rain = 0
KPD4 070817Z 17007KT 20/18 A3006 RMK A01 T02000177  RH  087%=      5-min Rain = 0
KPD4 070818Z 17006KT 20/18 A3006 RMK A01 T02000177  RH  087%=      5-min Rain = 0
KPD4 070819Z 17006KT 20/18 A3006 RMK A01 T02000177  RH  087%=      5-min Rain = 0
KPD4 070820Z 17007KT 20/18 A3006 RMK A01 T02000178  RH  087%=      5-min Rain = 0
KPD4 070821Z 17007KT 20/18 A3006 RMK A01 T02000178  RH  087%=      5-min Rain = 0
KPD4 070822Z 17007KT 20/18 A3006 RMK A01 T02000178  RH  087%=      5-min Rain = 0
KPD4 070823Z 18007KT 20/18 A3006 RMK A01 T02000178  RH  087%=      5-min Rain = 0
KPD4 070824Z 18006KT 20/18 A3006 RMK A01 T02000178  RH  087%=      5-min Rain = 0
KPD4 070825Z 19006KT 20/18 A3006 RMK A01 T02000178  RH  087%=      5-min Rain = 0
KPD4 070826Z 19006KT 20/18 A3006 RMK A01 T02000178  RH  087%=      5-min Rain = 0
KPD4 070827Z 19006KT 20/18 A3006 RMK A01 T02000178  RH  087%=      5-min Rain = 0
KPD4 070828Z 19006KT 20/18 A3006 RMK A01 T02000178  RH  087%=      5-min Rain = 0
KPD4 070829Z 19006KT 20/18 A3006 RMK A01 T01990177  RH  087%=      5-min Rain = 0
KPD4 070830Z 20006KT 20/18 A3006 RMK A01 T02000178  RH  087%=      5-min Rain = 0
KPD4 070831Z 19006KT 20/18 A3006 RMK A01 T01990177  RH  087%=      5-min Rain = 0
KPD4 070832Z 19006KT 20/18 A3006 RMK A01 T01990178  RH  087%=      5-min Rain = 0
KPD4 070833Z 18006KT 20/18 A3006 RMK A01 T02000178  RH  087%=      5-min Rain = 0
KPD4 070834Z 18006KT 20/18 A3006 RMK A01 T02000178  RH  087%=      5-min Rain = 0
KPD4 070835Z 18006KT 20/18 A3006 RMK A01 T02010179  RH  087%=      5-min Rain = 0
KPD4 070836Z 18006KT 20/18 A3006 RMK A01 T02010179  RH  087%=      5-min Rain = 0
KPD4 070837Z 18007KT 20/18 A3005 RMK A01 T02010179  RH  087%=      5-min Rain = 0
KPD4 070838Z 18007KT 20/18 A3005 RMK A01 T02020179  RH  087%=      5-min Rain = 0
KPD4 070839Z 17007KT 20/18 A3005 RMK A01 T02030181  RH  087%=      5-min Rain = 0
KPD4 070840Z 18008KT 21/18 A3005 RMK A01 T02050181  RH  086%=      5-min Rain = 0
KPD4 070841Z 18006KT 21/18 A3005 RMK A01 T02060182  RH  086%=      5-min Rain = 0
KPD4 070842Z 20006KT 21/18 A3005 RMK A01 T02070182  RH  086%=      5-min Rain = 0
KPD4 070843Z 20006KT 21/18 A3005 RMK A01 T02070181  RH  085%=      5-min Rain = 0
KPD4 070844Z 20006KT 21/18 A3005 RMK A01 T02060181  RH  085%=      5-min Rain = 0
KPD4 070845Z 20005KT 21/18 A3005 RMK A01 T02060181  RH  086%=      5-min Rain = 0
KPD4 070846Z 20006KT 21/18 A3005 RMK A01 T02050181  RH  086%=      5-min Rain = 0
KPD4 070847Z 20005KT 21/18 A3005 RMK A01 T02050180  RH  086%=      5-min Rain = 0
KPD4 070848Z 20006KT 21/18 A3005 RMK A01 T02050181  RH  086%=      5-min Rain = 0
KPD4 070849Z 20005KT 20/18 A3005 RMK A01 T02040181  RH  086%=      5-min Rain = 0
KPD4 070850Z 20006KT 20/18 A3005 RMK A01 T02040181  RH  086%=      5-min Rain = 0
KPD4 070851Z 20006KT 20/18 A3005 RMK A01 T02040181  RH  086%=      5-min Rain = 0
KPD4 070852Z 19006KT 21/18 A3005 RMK A01 T02050181  RH  086%=      5-min Rain = 0
KPD4 070853Z 19006KT 21/18 A3005 RMK A01 T02050181  RH  086%=      5-min Rain = 0
KPD4 070854Z 19006KT 21/18 A3005 RMK A01 T02050181  RH  086%=      5-min Rain = 0
KPD4 070855Z 19006KT 21/18 A3005 RMK A01 T02060181  RH  086%=      5-min Rain = 0
KPD4 070856Z 21005KT 21/18 A3005 RMK A01 T02050181  RH  086%=      5-min Rain = 0
KPD4 070857Z 21005KT 21/18 A3005 RMK A01 T02050180  RH  086%=      5-min Rain = 0
KPD4 070858Z 20005KT 20/18 A3005 RMK A01 T02040180  RH  086%=      5-min Rain = 0
KPD4 070859Z 20006KT 20/18 A3005 RMK A01 T02030180  RH  087%=      5-min Rain = 0
KPD4 070900Z 19006KT 20/18 A3005 RMK A01 T02030180  RH  087%=      5-min Rain = 0
KPD4 070901Z 19006KT 20/18 A3005 RMK A01 T02030181  RH  087%=      5-min Rain = 0
KPD4 070902Z 19006KT 20/18 A3005 RMK A01 T02030181  RH  087%=      5-min Rain = 0
KPD4 070903Z 19006KT 20/18 A3006 RMK A01 T02040182  RH  087%=      5-min Rain = 0
KPD4 070904Z 19006KT 20/18 A3006 RMK A01 T02040182  RH  087%=      5-min Rain = 0
KPD4 070905Z 19005KT 21/18 A3006 RMK A01 T02050181  RH  086%=      5-min Rain = 0
KPD4 070906Z 19005KT 21/18 A3006 RMK A01 T02050181  RH  086%=      5-min Rain = 0
KPD4 070907Z 19005KT 21/18 A3006 RMK A01 T02050181  RH  086%=      5-min Rain = 0
KPD4 070908Z 19005KT 20/18 A3006 RMK A01 T02040181  RH  086%=      5-min Rain = 0
KPD4 070909Z 17005KT 20/18 A3006 RMK A01 T02040181  RH  087%=      5-min Rain = 0
KPD4 070910Z 17005KT 20/18 A3006 RMK A01 T02030180  RH  087%=      5-min Rain = 0
KPD4 070911Z 17005KT 20/18 A3006 RMK A01 T02030181  RH  087%=      5-min Rain = 0
KPD4 070912Z 17006KT 20/18 A3006 RMK A01 T02030181  RH  087%=      5-min Rain = 0
KPD4 070913Z 16006KT 20/18 A3006 RMK A01 T02030180  RH  087%=      5-min Rain = 0
KPD4 070914Z 15007KT 20/18 A3006 RMK A01 T02020180  RH  087%=      5-min Rain = 0
KPD4 070915Z 17006KT 20/18 A3006 RMK A01 T02010180  RH  088%=      5-min Rain = 0
KPD4 070916Z 18006KT 20/18 A3005 RMK A01 T02010180  RH  088%=      5-min Rain = 0
KPD4 070917Z 18007KT 20/18 A3005 RMK A01 T02010180  RH  088%=      5-min Rain = 0
KPD4 070918Z 18007KT 20/18 A3005 RMK A01 T02010181  RH  088%=      5-min Rain = 0
KPD4 070919Z 19006KT 20/18 A3005 RMK A01 T02010181  RH  088%=      5-min Rain = 0
KPD4 070920Z 18006KT 20/18 A3005 RMK A01 T02010180  RH  088%=      5-min Rain = 0
KPD4 070921Z 17006KT 20/18 A3005 RMK A01 T02000180  RH  088%=      5-min Rain = 0
KPD4 070922Z 17007KT 20/18 A3006 RMK A01 T02000180  RH  089%=      5-min Rain = 0
KPD4 070923Z 17008KT 20/18 A3006 RMK A01 T02000181  RH  089%=      5-min Rain = 0
KPD4 070924Z 17008KT 20/18 A3006 RMK A01 T02000181  RH  089%=      5-min Rain = 0
KPD4 070925Z 18008KT 20/18 A3006 RMK A01 T02000181  RH  089%=      5-min Rain = 0
KPD4 070926Z 18007KT 20/18 A3006 RMK A01 T02000181  RH  089%=      5-min Rain = 0
KPD4 070927Z 18007KT 20/18 A3006 RMK A01 T02000181  RH  089%=      5-min Rain = 0
KPD4 070928Z 19007KT 20/18 A3005 RMK A01 T02000181  RH  089%=      5-min Rain = 0
KPD4 070929Z 19007KT 20/18 A3005 RMK A01 T02000182  RH  089%=      5-min Rain = 0
KPD4 070930Z 19006KT 20/18 A3006 RMK A01 T02000181  RH  089%=      5-min Rain = 0
KPD4 070931Z 20006KT 20/18 A3006 RMK A01 T02000181  RH  089%=      5-min Rain = 0
KPD4 070932Z 20006KT 20/18 A3006 RMK A01 T01990180  RH  089%=      5-min Rain = 0
KPD4 070933Z 21007KT 20/18 A3006 RMK A01 T01980180  RH  089%=      5-min Rain = 0
KPD4 070934Z 21007KT 20/18 A3006 RMK A01 T01980181  RH  090%=      5-min Rain = 0
KPD4 070935Z 21007KT 20/18 A3005 RMK A01 T01990181  RH  090%=      5-min Rain = 0
KPD4 070936Z 21007KT 20/18 A3005 RMK A01 T01990182  RH  090%=      5-min Rain = 0
KPD4 070937Z 21008KT 20/18 A3005 RMK A01 T02000182  RH  090%=      5-min Rain = 0
KPD4 070938Z 21008KT 20/18 A3005 RMK A01 T02010183  RH  089%=      5-min Rain = 0
KPD4 070939Z 21006KT 20/18 A3005 RMK A01 T02020183  RH  089%=      5-min Rain = 0
KPD4 070940Z 21007KT 20/18 A3006 RMK A01 T02020182  RH  088%=      5-min Rain = 0
KPD4 070941Z 20007KT 20/18 A3006 RMK A01 T02020182  RH  088%=      5-min Rain = 0
KPD4 070942Z 20006KT 20/18 A3006 RMK A01 T02010182  RH  088%=      5-min Rain = 0
KPD4 070943Z 20006KT 20/18 A3006 RMK A01 T02000181  RH  089%=      5-min Rain = 0
KPD4 070944Z 20006KT 20/18 A3006 RMK A01 T01990181  RH  089%=      5-min Rain = 0
KPD4 070945Z 20006KT 20/18 A3006 RMK A01 T01990181  RH  089%=      5-min Rain = 0
KPD4 070946Z 20006KT 20/18 A3006 RMK A01 T01980181  RH  090%=      5-min Rain = 0
KPD4 070947Z 19006KT 20/18 A3006 RMK A01 T01980181  RH  090%=      5-min Rain = 0
KPD4 070948Z 19007KT 20/18 A3006 RMK A01 T01980181  RH  090%=      5-min Rain = 0
KPD4 070949Z 19006KT 20/18 A3006 RMK A01 T01980181  RH  090%=      5-min Rain = 0
KPD4 070950Z 19006KT 20/18 A3006 RMK A01 T01980182  RH  090%=      5-min Rain = 0
KPD4 070951Z 18006KT 20/18 A3006 RMK A01 T01990182  RH  090%=      5-min Rain = 0
KPD4 070952Z 18006KT 20/18 A3006 RMK A01 T01990182  RH  090%=      5-min Rain = 0
KPD4 070953Z 19006KT 20/18 A3006 RMK A01 T01990182  RH  090%=      5-min Rain = 0
KPD4 070954Z 19006KT 20/18 A3006 RMK A01 T01990181  RH  090%=      5-min Rain = 0
KPD4 070955Z 19006KT 20/18 A3006 RMK A01 T01980181  RH  090%=      5-min Rain = 0
KPD4 070956Z 19006KT 20/18 A3006 RMK A01 T01980181  RH  090%=      5-min Rain = 0
KPD4 070957Z 20006KT 20/18 A3006 RMK A01 T01980180  RH  090%=      5-min Rain = 0
KPD4 070958Z 20005KT 20/18 A3006 RMK A01 T01970180  RH  090%=      5-min Rain = 0
KPD4 070959Z 20005KT 20/18 A3006 RMK A01 T01970180  RH  090%=      5-min Rain = 0
KPD4 071000Z 20005KT 20/18 A3006 RMK A01 T01960179  RH  090%=      5-min Rain = 0
KPD4 071001Z 20005KT 20/18 A3006 RMK A01 T01950179  RH  090%=      5-min Rain = 0
KPD4 071002Z 20004KT 20/18 A3006 RMK A01 T01950180  RH  091%=      5-min Rain = 0
KPD4 071003Z 19004KT 20/18 A3006 RMK A01 T01950179  RH  091%=      5-min Rain = 0
KPD4 071004Z 19005KT 20/18 A3006 RMK A01 T01950179  RH  091%=      5-min Rain = 0
KPD4 071005Z 19005KT 19/18 A3006 RMK A01 T01940179  RH  091%=      5-min Rain = 0
KPD4 071006Z 18005KT 19/18 A3006 RMK A01 T01940179  RH  091%=      5-min Rain = 0
KPD4 071007Z 18005KT 19/18 A3006 RMK A01 T01940179  RH  091%=      5-min Rain = 0
KPD4 071008Z 18005KT 19/18 A3006 RMK A01 T01940179  RH  091%=      5-min Rain = 0
KPD4 071009Z 18006KT 19/18 A3006 RMK A01 T01940179  RH  091%=      5-min Rain = 0
KPD4 071010Z 18006KT 19/18 A3006 RMK A01 T01940179  RH  091%=      5-min Rain = 0
KPD4 071011Z 19005KT 19/18 A3006 RMK A01 T01940179  RH  091%=      5-min Rain = 0
KPD4 071012Z 19005KT 19/18 A3006 RMK A01 T01940180  RH  091%=      5-min Rain = 0
KPD4 071013Z 19005KT 19/18 A3006 RMK A01 T01940180  RH  091%=      5-min Rain = 0
KPD4 071014Z 19005KT 19/18 A3006 RMK A01 T01940179  RH  091%=      5-min Rain = 0
KPD4 071015Z 20005KT 19/18 A3006 RMK A01 T01930179  RH  091%=      5-min Rain = 0
KPD4 071016Z 19005KT 19/18 A3006 RMK A01 T01930178  RH  091%=      5-min Rain = 0
KPD4 071017Z 19005KT 19/18 A3006 RMK A01 T01930178  RH  091%=      5-min Rain = 0
KPD4 071018Z 19005KT 19/18 A3006 RMK A01 T01920178  RH  091%=      5-min Rain = 0
KPD4 071019Z 19005KT 19/18 A3006 RMK A01 T01920178  RH  092%=      5-min Rain = 0
KPD4 071020Z 19006KT 19/18 A3006 RMK A01 T01920179  RH  092%=      5-min Rain = 0
KPD4 071021Z 18006KT 19/18 A3006 RMK A01 T01920179  RH  092%=      5-min Rain = 0
KPD4 071022Z 18006KT 19/18 A3006 RMK A01 T01920179  RH  092%=      5-min Rain = 0
KPD4 071023Z 19006KT 19/18 A3007 RMK A01 T01920179  RH  092%=      5-min Rain = 0
KPD4 071024Z 19005KT 19/18 A3007 RMK A01 T01920179  RH  092%=      5-min Rain = 0
KPD4 071025Z 20004KT 19/18 A3007 RMK A01 T01920179  RH  092%=      5-min Rain = 0
KPD4 071026Z 20005KT 19/18 A3007 RMK A01 T01920178  RH  092%=      5-min Rain = 0
KPD4 071027Z 20005KT 19/18 A3007 RMK A01 T01920179  RH  092%=      5-min Rain = 0
KPD4 071028Z 22004KT 19/18 A3007 RMK A01 T01920179  RH  092%=      5-min Rain = 0
KPD4 071029Z 22004KT 19/18 A3007 RMK A01 T01920178  RH  092%=      5-min Rain = 0
KPD4 071030Z 22005KT 19/18 A3007 RMK A01 T01920178  RH  092%=      5-min Rain = 0
KPD4 071031Z 22006KT 19/18 A3007 RMK A01 T01920178  RH  092%=      5-min Rain = 0
KPD4 071032Z 22006KT 19/18 A3007 RMK A01 T01920180  RH  092%=      5-min Rain = 0
KPD4 071033Z 22006KT 19/18 A3007 RMK A01 T01930180  RH  092%=      5-min Rain = 0
KPD4 071034Z 23006KT 19/18 A3007 RMK A01 T01940181  RH  092%=      5-min Rain = 0
KPD4 071035Z 23006KT 19/18 A3007 RMK A01 T01940181  RH  092%=      5-min Rain = 0
KPD4 071036Z 23007KT 19/18 A3007 RMK A01 T01940180  RH  092%=      5-min Rain = 0
KPD4 071037Z 23007KT 19/18 A3007 RMK A01 T01940180  RH  092%=      5-min Rain = 0
KPD4 071038Z 23006KT 19/18 A3007 RMK A01 T01940180  RH  092%=      5-min Rain = 0
KPD4 071039Z 22006KT 19/18 A3007 RMK A01 T01940180  RH  092%=      5-min Rain = 0
KPD4 071040Z 21006KT 19/18 A3007 RMK A01 T01930179  RH  092%=      5-min Rain = 0
KPD4 071041Z 21006KT 19/18 A3007 RMK A01 T01930180  RH  092%=      5-min Rain = 0
KPD4 071042Z 21006KT 19/18 A3007 RMK A01 T01930180  RH  092%=      5-min Rain = 0
KPD4 071043Z 21006KT 19/18 A3007 RMK A01 T01930180  RH  092%=      5-min Rain = 0
KPD4 071044Z 21007KT 19/18 A3007 RMK A01 T01930180  RH  092%=      5-min Rain = 0
KPD4 071045Z 21006KT 19/18 A3007 RMK A01 T01940180  RH  092%=      5-min Rain = 0
KPD4 071046Z 21007KT 19/18 A3007 RMK A01 T01940180  RH  092%=      5-min Rain = 0
KPD4 071047Z 21006KT 19/18 A3007 RMK A01 T01940181  RH  092%=      5-min Rain = 0
KPD4 071048Z 22007KT 19/18 A3007 RMK A01 T01940181  RH  092%=      5-min Rain = 0
KPD4 071049Z 22008KT 19/18 A3007 RMK A01 T01940181  RH  092%=      5-min Rain = 0
KPD4 071050Z 22008KT 19/18 A3007 RMK A01 T01940181  RH  092%=      5-min Rain = 0
KPD4 071051Z 22008KT 19/18 A3007 RMK A01 T01940181  RH  092%=      5-min Rain = 0
KPD4 071052Z 23007KT 20/18 A3007 RMK A01 T01950181  RH  092%=      5-min Rain = 0
KPD4 071053Z 23008KT 20/18 A3007 RMK A01 T01950181  RH  092%=      5-min Rain = 0
KPD4 071054Z 23007KT 20/18 A3007 RMK A01 T01950181  RH  091%=      5-min Rain = 0
KPD4 071055Z 23008KT 19/18 A3006 RMK A01 T01940180  RH  091%=      5-min Rain = 0
KPD4 071056Z 23008KT 19/18 A3007 RMK A01 T01940179  RH  091%=      5-min Rain = 0
KPD4 071057Z 23008KT 19/18 A3006 RMK A01 T01930179  RH  092%=      5-min Rain = 0
KPD4 071058Z 24008KT 19/18 A3007 RMK A01 T01930179  RH  092%=      5-min Rain = 0
KPD4 071059Z 24008KT 19/18 A3006 RMK A01 T01930179  RH  092%=      5-min Rain = 0
KPD4 071100Z 24008KT 19/18 A3007 RMK A01 T01930179  RH  092%=      5-min Rain = 0
KPD4 071101Z 23009KT 19/18 A3007 RMK A01 T01930179  RH  092%=      5-min Rain = 0
KPD4 071102Z 23009KT 19/18 A3007 RMK A01 T01920179  RH  092%=      5-min Rain = 0
KPD4 071103Z 23009KT 19/18 A3007 RMK A01 T01930180  RH  092%=      5-min Rain = 0
KPD4 071104Z 23008KT 19/18 A3007 RMK A01 T01930180  RH  092%=      5-min Rain = 0
KPD4 071105Z 23007KT 19/18 A3007 RMK A01 T01940180  RH  092%=      5-min Rain = 0
KPD4 071106Z 23007KT 19/18 A3007 RMK A01 T01930179  RH  092%=      5-min Rain = 0
KPD4 071107Z 23007KT 19/18 A3007 RMK A01 T01940180  RH  092%=      5-min Rain = 0
KPD4 071108Z 22008KT 19/18 A3007 RMK A01 T01930180  RH  092%=      5-min Rain = 0
KPD4 071109Z 22008KT 19/18 A3007 RMK A01 T01940181  RH  092%=      5-min Rain = 0
KPD4 071110Z 22007KT 20/18 A3007 RMK A01 T01950181  RH  092%=      5-min Rain = 0
KPD4 071111Z 22007KT 20/18 A3007 RMK A01 T01960182  RH  092%=      5-min Rain = 0
KPD4 071112Z 22007KT 20/18 A3007 RMK A01 T01960182  RH  091%=      5-min Rain = 0
KPD4 071113Z 21007KT 20/18 A3007 RMK A01 T01960181  RH  091%=      5-min Rain = 0
KPD4 071114Z 21006KT 20/18 A3007 RMK A01 T01960181  RH  091%=      5-min Rain = 0
KPD4 071115Z 21006KT 20/18 A3007 RMK A01 T01960181  RH  091%=      5-min Rain = 0
KPD4 071116Z 21006KT 20/18 A3007 RMK A01 T01960181  RH  091%=      5-min Rain = 0
KPD4 071117Z 21006KT 20/18 A3007 RMK A01 T01960181  RH  091%=      5-min Rain = 0
KPD4 071118Z 21006KT 20/18 A3007 RMK A01 T01950181  RH  091%=      5-min Rain = 0
KPD4 071119Z 20006KT 20/18 A3007 RMK A01 T01950181  RH  091%=      5-min Rain = 0
KPD4 071120Z 20005KT 20/18 A3007 RMK A01 T01950181  RH  091%=      5-min Rain = 0
KPD4 071121Z 20005KT 20/18 A3007 RMK A01 T01950181  RH  091%=      5-min Rain = 0
KPD4 071122Z 20005KT 19/18 A3007 RMK A01 T01940180  RH  092%=      5-min Rain = 0
KPD4 071123Z 20005KT 19/18 A3007 RMK A01 T01930180  RH  092%=      5-min Rain = 0
KPD4 071124Z 20004KT 19/18 A3007 RMK A01 T01930179  RH  092%=      5-min Rain = 0
KPD4 071125Z 20004KT 19/18 A3007 RMK A01 T01930179  RH  092%=      5-min Rain = 0
KPD4 071126Z 21004KT 19/18 A3007 RMK A01 T01920179  RH  092%=      5-min Rain = 0
KPD4 071127Z 21004KT 19/18 A3007 RMK A01 T01920178  RH  092%=      5-min Rain = 0
KPD4 071128Z 21004KT 19/18 A3007 RMK A01 T01910178  RH  092%=      5-min Rain = 0
KPD4 071129Z 22004KT 19/18 A3007 RMK A01 T01910178  RH  092%=      5-min Rain = 0
KPD4 071130Z 22004KT 19/18 A3007 RMK A01 T01900177  RH  092%=      5-min Rain = 0
KPD4 071131Z 22005KT 19/18 A3007 RMK A01 T01890177  RH  093%=      5-min Rain = 0
KPD4 071132Z 22005KT 19/18 A3007 RMK A01 T01890177  RH  093%=      5-min Rain = 0
KPD4 071133Z 22005KT 19/18 A3007 RMK A01 T01880176  RH  093%=      5-min Rain = 0
KPD4 071134Z 22005KT 19/18 A3007 RMK A01 T01880176  RH  093%=      5-min Rain = 0
KPD4 071135Z 22006KT 19/18 A3007 RMK A01 T01870176  RH  093%=      5-min Rain = 0
KPD4 071136Z 22006KT 19/18 A3007 RMK A01 T01880177  RH  093%=      5-min Rain = 0
KPD4 071137Z 23007KT 19/18 A3007 RMK A01 T01880177  RH  094%=      5-min Rain = 0
KPD4 071138Z 22007KT 19/18 A3007 RMK A01 T01880178  RH  094%=      5-min Rain = 0
KPD4 071139Z 22007KT 19/18 A3007 RMK A01 T01890179  RH  094%=      5-min Rain = 0
KPD4 071140Z 22007KT 19/18 A3007 RMK A01 T01900180  RH  094%=      5-min Rain = 0
KPD4 071141Z 22007KT 19/18 A3007 RMK A01 T01900180  RH  094%=      5-min Rain = 0
KPD4 071142Z 21007KT 19/18 A3007 RMK A01 T01910180  RH  093%=      5-min Rain = 0
KPD4 071143Z 21007KT 19/18 A3007 RMK A01 T01910180  RH  093%=      5-min Rain = 0
KPD4 071144Z 21006KT 19/18 A3007 RMK A01 T01920180  RH  093%=      5-min Rain = 0
KPD4 071145Z 21006KT 19/18 A3007 RMK A01 T01920180  RH  093%=      5-min Rain = 0
KPD4 071146Z 20006KT 19/18 A3007 RMK A01 T01920179  RH  092%=      5-min Rain = 0
KPD4 071147Z 20005KT 19/18 A3007 RMK A01 T01910179  RH  092%=      5-min Rain = 0
KPD4 071148Z 20005KT 19/18 A3007 RMK A01 T01910178  RH  092%=      5-min Rain = 0
KPD4 071149Z 20005KT 19/18 A3007 RMK A01 T01900177  RH  092%=      5-min Rain = 0
KPD4 071150Z 21005KT 19/18 A3007 RMK A01 T01890176  RH  092%=      5-min Rain = 0
KPD4 071151Z 21005KT 19/18 A3006 RMK A01 T01880176  RH  093%=      5-min Rain = 0
KPD4 071152Z 21005KT 19/18 A3006 RMK A01 T01870176  RH  093%=      5-min Rain = 0
KPD4 071153Z 21005KT 19/18 A3006 RMK A01 T01870176  RH  093%=      5-min Rain = 0
KPD4 071154Z 21005KT 19/18 A3006 RMK A01 T01870176  RH  093%=      5-min Rain = 0
KPD4 071155Z 21005KT 19/18 A3006 RMK A01 T01870175  RH  093%=      5-min Rain = 0
KPD4 071156Z 20005KT 19/18 A3006 RMK A01 T01860175  RH  093%=      5-min Rain = 0
KPD4 071157Z 20004KT 19/18 A3006 RMK A01 T01860175  RH  093%=      5-min Rain = 0
KPD4 071158Z 19004KT 19/18 A3006 RMK A01 T01860175  RH  093%=      5-min Rain = 0
KPD4 071159Z 19004KT 19/18 A3006 RMK A01 T01860175  RH  093%=      5-min Rain = 0
KPD4 071200Z 20004KT 19/18 A3006 RMK A01 T01860175  RH  094%=      5-min Rain = 0
KPD4 071201Z 20003KT 19/18 A3006 RMK A01 T01860175  RH  094%=      5-min Rain = 0
KPD4 071202Z 20004KT 19/18 A3006 RMK A01 T01860176  RH  094%=      5-min Rain = 0
KPD4 071203Z 21004KT 19/18 A3006 RMK A01 T01860176  RH  094%=      5-min Rain = 0
KPD4 071204Z 21004KT 19/18 A3006 RMK A01 T01870176  RH  094%=      5-min Rain = 0
KPD4 071205Z 21004KT 19/18 A3006 RMK A01 T01870176  RH  093%=      5-min Rain = 0
KPD4 071206Z 21005KT 19/18 A3006 RMK A01 T01870176  RH  093%=      5-min Rain = 0
KPD4 071207Z 21005KT 19/18 A3006 RMK A01 T01870176  RH  093%=      5-min Rain = 0
KPD4 071208Z 20005KT 19/18 A3006 RMK A01 T01870176  RH  093%=      5-min Rain = 0
KPD4 071209Z 20005KT 19/18 A3006 RMK A01 T01870176  RH  093%=      5-min Rain = 0
KPD4 071210Z 20005KT 19/18 A3006 RMK A01 T01880177  RH  093%=      5-min Rain = 0
KPD4 071211Z 19005KT 19/18 A3006 RMK A01 T01880177  RH  093%=      5-min Rain = 0
KPD4 071212Z 19005KT 19/18 A3006 RMK A01 T01890178  RH  093%=      5-min Rain = 0
KPD4 071213Z 20005KT 19/18 A3006 RMK A01 T01900179  RH  093%=      5-min Rain = 0
KPD4 071214Z 19005KT 19/18 A3006 RMK A01 T01910180  RH  093%=      5-min Rain = 0
KPD4 071215Z 19004KT 19/18 A3006 RMK A01 T01910180  RH  093%=      5-min Rain = 0
KPD4 071216Z 18004KT 19/18 A3006 RMK A01 T01920180  RH  093%=      5-min Rain = 0
KPD4 071217Z 18005KT 19/18 A3006 RMK A01 T01930180  RH  093%=      5-min Rain = 0
KPD4 071218Z 17005KT 19/18 A3006 RMK A01 T01930181  RH  092%=      5-min Rain = 0
KPD4 071219Z 17005KT 19/18 A3007 RMK A01 T01940181  RH  092%=      5-min Rain = 0
KPD4 071220Z 17005KT 19/18 A3007 RMK A01 T01940181  RH  092%=      5-min Rain = 0
KPD4 071221Z 17004KT 20/18 A3007 RMK A01 T01950181  RH  092%=      5-min Rain = 0
KPD4 071222Z 17003KT 20/18 A3007 RMK A01 T01950181  RH  091%=      5-min Rain = 0
KPD4 071223Z 17003KT 20/18 A3007 RMK A01 T01960181  RH  091%=      5-min Rain = 0
KPD4 071224Z 16003KT 20/18 A3007 RMK A01 T01960181  RH  091%=      5-min Rain = 0
KPD4 071225Z 16003KT 20/18 A3007 RMK A01 T01960182  RH  091%=      5-min Rain = 0
KPD4 071226Z 15003KT 20/18 A3007 RMK A01 T01970182  RH  091%=      5-min Rain = 0
KPD4 071227Z 15002KT 20/18 A3007 RMK A01 T01970183  RH  091%=      5-min Rain = 0
KPD4 071228Z 16003KT 20/18 A3007 RMK A01 T01980184  RH  091%=      5-min Rain = 0
KPD4 071229Z 17003KT 20/18 A3007 RMK A01 T01990183  RH  090%=      5-min Rain = 0
KPD4 071230Z 18003KT 20/18 A3007 RMK A01 T02000183  RH  090%=      5-min Rain = 0
KPD4 071231Z 19003KT 20/18 A3007 RMK A01 T02000183  RH  090%=      5-min Rain = 0
KPD4 071232Z 20003KT 20/18 A3007 RMK A01 T02000183  RH  090%=      5-min Rain = 0
KPD4 071233Z 21003KT 20/18 A3007 RMK A01 T02000182  RH  089%=      5-min Rain = 0
KPD4 071234Z 22003KT 20/18 A3007 RMK A01 T02000182  RH  089%=      5-min Rain = 0
KPD4 071235Z 22003KT 20/18 A3007 RMK A01 T02000183  RH  089%=      5-min Rain = 0
KPD4 071236Z 21003KT 20/18 A3007 RMK A01 T02000183  RH  090%=      5-min Rain = 0
KPD4 071237Z 20004KT 20/18 A3007 RMK A01 T02010184  RH  090%=      5-min Rain = 0
KPD4 071238Z 19004KT 20/18 A3007 RMK A01 T02020184  RH  090%=      5-min Rain = 0
KPD4 071239Z 18004KT 20/19 A3007 RMK A01 T02030185  RH  089%=      5-min Rain = 0
KPD4 071240Z 17004KT 20/19 A3007 RMK A01 T02040186  RH  089%=      5-min Rain = 0
KPD4 071241Z 16003KT 21/19 A3007 RMK A01 T02050186  RH  089%=      5-min Rain = 0
KPD4 071242Z 16003KT 21/19 A3007 RMK A01 T02060187  RH  089%=      5-min Rain = 0
KPD4 071243Z 17004KT 21/19 A3007 RMK A01 T02070188  RH  088%=      5-min Rain = 0
KPD4 071244Z 16003KT 21/19 A3007 RMK A01 T02090188  RH  088%=      5-min Rain = 0
KPD4 071245Z 17004KT 21/19 A3007 RMK A01 T02090188  RH  087%=      5-min Rain = 0
KPD4 071246Z 17003KT 21/19 A3007 RMK A01 T02100188  RH  087%=      5-min Rain = 0
KPD4 071247Z 17003KT 21/19 A3007 RMK A01 T02110189  RH  087%=      5-min Rain = 0
KPD4 071248Z 16003KT 21/19 A3007 RMK A01 T02120190  RH  087%=      5-min Rain = 0
KPD4 071249Z 17005KT 21/19 A3007 RMK A01 T02130190  RH  086%=      5-min Rain = 0
KPD4 071250Z 17005KT 21/19 A3007 RMK A01 T02140188  RH  085%=      5-min Rain = 0
KPD4 071251Z 18005KT 21/19 A3007 RMK A01 T02140188  RH  085%=      5-min Rain = 0
KPD4 071252Z 18004KT 21/19 A3007 RMK A01 T02130188  RH  085%=      5-min Rain = 0
KPD4 071253Z 19004KT 21/19 A3007 RMK A01 T02130188  RH  086%=      5-min Rain = 0
KPD4 071254Z 19003KT 21/19 A3007 RMK A01 T02130189  RH  086%=      5-min Rain = 0
KPD4 071255Z 21004KT 21/19 A3007 RMK A01 T02130188  RH  086%=      5-min Rain = 0
KPD4 071256Z 20003KT 21/19 A3007 RMK A01 T02130189  RH  086%=      5-min Rain = 0
KPD4 071257Z 20005KT 21/19 A3007 RMK A01 T02130189  RH  086%=      5-min Rain = 0
KPD4 071258Z 20004KT 21/19 A3007 RMK A01 T02140189  RH  086%=      5-min Rain = 0
KPD4 071259Z 19003KT 22/19 A3007 RMK A01 T02150191  RH  086%=      5-min Rain = 0
KPD4 071300Z 18003KT 22/19 A3007 RMK A01 T02160190  RH  085%=      5-min Rain = 0
KPD4 071301Z 17003KT 22/19 A3007 RMK A01 T02170190  RH  085%=      5-min Rain = 0
KPD4 071302Z 18003KT 22/19 A3008 RMK A01 T02180190  RH  084%=      5-min Rain = 0
KPD4 071303Z 17003KT 22/19 A3008 RMK A01 T02190191  RH  084%=      5-min Rain = 0
KPD4 071304Z 17003KT 22/19 A3008 RMK A01 T02200192  RH  084%=      5-min Rain = 0
KPD4 071305Z 18003KT 22/19 A3008 RMK A01 T02210192  RH  083%=      5-min Rain = 0
KPD4 071306Z 18004KT 22/19 A3008 RMK A01 T02220191  RH  083%=      5-min Rain = 0
KPD4 071307Z 18004KT 22/19 A3008 RMK A01 T02220191  RH  083%=      5-min Rain = 0
KPD4 071308Z 19004KT 22/19 A3008 RMK A01 T02230192  RH  083%=      5-min Rain = 0
KPD4 071309Z 18003KT 22/19 A3008 RMK A01 T02230193  RH  083%=      5-min Rain = 0
KPD4 071310Z 19005KT 22/19 A3008 RMK A01 T02240194  RH  083%=      5-min Rain = 0
KPD4 071311Z 18004KT 23/19 A3008 RMK A01 T02260194  RH  082%=      5-min Rain = 0
KPD4 071312Z 18005KT 23/19 A3008 RMK A01 T02270194  RH  082%=      5-min Rain = 0
KPD4 071313Z 17005KT 23/19 A3008 RMK A01 T02270193  RH  081%=      5-min Rain = 0
KPD4 071314Z 16004KT 23/20 A3008 RMK A01 T02270195  RH  082%=      5-min Rain = 0
KPD4 071315Z 17005KT 23/19 A3008 RMK A01 T02280194  RH  081%=      5-min Rain = 0
KPD4 071316Z 17005KT 23/19 A3008 RMK A01 T02290194  RH  081%=      5-min Rain = 0
KPD4 071317Z 16004KT 23/19 A3008 RMK A01 T02290194  RH  081%=      5-min Rain = 0
KPD4 071318Z 17005KT 23/20 A3008 RMK A01 T02290195  RH  081%=      5-min Rain = 0
KPD4 071319Z 17005KT 23/19 A3008 RMK A01 T02300194  RH  081%=      5-min Rain = 0
KPD4 071320Z 17005KT 23/19 A3008 RMK A01 T02300194  RH  080%=      5-min Rain = 0
KPD4 071321Z 17006KT 23/20 A3008 RMK A01 T02310195  RH  080%=      5-min Rain = 0
KPD4 071322Z 17005KT 23/20 A3008 RMK A01 T02310195  RH  080%=      5-min Rain = 0
KPD4 071323Z 17004KT 23/20 A3008 RMK A01 T02310195  RH  080%=      5-min Rain = 0
KPD4 071324Z 17005KT 23/20 A3008 RMK A01 T02320196  RH  080%=      5-min Rain = 0
KPD4 071325Z 17006KT 23/20 A3008 RMK A01 T02330196  RH  080%=      5-min Rain = 0
KPD4 071326Z 17005KT 23/20 A3008 RMK A01 T02340196  RH  079%=      5-min Rain = 0
KPD4 071327Z 16006KT 24/20 A3008 RMK A01 T02350197  RH  079%=      5-min Rain = 0
KPD4 071328Z 16005KT 24/20 A3008 RMK A01 T02360197  RH  079%=      5-min Rain = 0
KPD4 071329Z 17006KT 24/20 A3008 RMK A01 T02370198  RH  079%=      5-min Rain = 0
KPD4 071330Z 17007KT 24/20 A3008 RMK A01 T02380198  RH  078%=      5-min Rain = 0
KPD4 071331Z 16006KT 24/20 A3008 RMK A01 T02390198  RH  078%=      5-min Rain = 0
KPD4 071332Z 17006KT 24/20 A3008 RMK A01 T02410198  RH  077%=      5-min Rain = 0
KPD4 071333Z 15006KT 24/20 A3008 RMK A01 T02420200  RH  078%=      5-min Rain = 0
KPD4 071334Z 14007KT 25/20 A3008 RMK A01 T02450200  RH  076%=      5-min Rain = 0
KPD4 071335Z 15007KT 25/20 A3008 RMK A01 T02460200  RH  076%=      5-min Rain = 0
KPD4 071336Z 15007KT 25/20 A3008 RMK A01 T02470200  RH  075%=      5-min Rain = 0
KPD4 071337Z 14007KT 25/20 A3008 RMK A01 T02470199  RH  075%=      5-min Rain = 0
KPD4 071338Z 15007KT 25/20 A3008 RMK A01 T02470199  RH  075%=      5-min Rain = 0
KPD4 071339Z 15007KT 25/20 A3008 RMK A01 T02470199  RH  075%=      5-min Rain = 0
KPD4 071340Z 14007KT 25/20 A3008 RMK A01 T02470199  RH  075%=      5-min Rain = 0
KPD4 071341Z 14008KT 25/20 A3008 RMK A01 T02470199  RH  074%=      5-min Rain = 0
KPD4 071342Z 14007KT 25/20 A3008 RMK A01 T02480199  RH  074%=      5-min Rain = 0
KPD4 071343Z 14007KT 25/20 A3008 RMK A01 T02480199  RH  074%=      5-min Rain = 0
KPD4 071344Z 14008KT 25/20 A3008 RMK A01 T02490199  RH  074%=      5-min Rain = 0
KPD4 071345Z 14008KT 25/20 A3008 RMK A01 T02510199  RH  073%=      5-min Rain = 0
KPD4 071346Z 14009KT 25/20 A3008 RMK A01 T02520199  RH  073%=      5-min Rain = 0
KPD4 071347Z 14009KT 25/20 A3008 RMK A01 T02520198  RH  072%=      5-min Rain = 0
KPD4 071348Z 15009KT 25/20 A3008 RMK A01 T02510198  RH  072%=      5-min Rain = 0
KPD4 071349Z 15008KT 25/20 A3008 RMK A01 T02500198  RH  073%=      5-min Rain = 0
KPD4 071350Z 15008KT 25/20 A3008 RMK A01 T02500197  RH  073%=      5-min Rain = 0
KPD4 071351Z 15008KT 25/20 A3008 RMK A01 T02500197  RH  073%=      5-min Rain = 0
KPD4 071352Z 15008KT 25/20 A3008 RMK A01 T02500197  RH  072%=      5-min Rain = 0
KPD4 071353Z 16008KT 25/20 A3008 RMK A01 T02500197  RH  072%=      5-min Rain = 0
KPD4 071354Z 15007KT 25/20 A3008 RMK A01 T02510198  RH  072%=      5-min Rain = 0
KPD4 071355Z 16008KT 25/20 A3008 RMK A01 T02530199  RH  072%=      5-min Rain = 0
KPD4 071356Z 15008KT 26/20 A3008 RMK A01 T02550197  RH  070%=      5-min Rain = 0
KPD4 071357Z 16009KT 26/20 A3008 RMK A01 T02570196  RH  069%=      5-min Rain = 0
KPD4 071358Z 16008KT 26/20 A3008 RMK A01 T02560196  RH  070%=      5-min Rain = 0
KPD4 071359Z 16007KT 26/20 A3008 RMK A01 T02560198  RH  070%=      5-min Rain = 0
KPD4 071400Z 17008KT 26/20 A3008 RMK A01 T02580196  RH  069%=      5-min Rain = 0
KPD4 071401Z 17007KT 26/20 A3008 RMK A01 T02590198  RH  069%=      5-min Rain = 0
KPD4 071402Z 19007KT 26/20 A3008 RMK A01 T02610197  RH  068%=      5-min Rain = 0
KPD4 071403Z 18007KT 26/20 A3008 RMK A01 T02620197  RH  067%=      5-min Rain = 0
KPD4 071404Z 17007KT 26/20 A3008 RMK A01 T02620197  RH  067%=      5-min Rain = 0
KPD4 071405Z 17009KT 26/20 A3008 RMK A01 T02630197  RH  067%=      5-min Rain = 0
KPD4 071406Z 18008KT 26/19 A3008 RMK A01 T02620194  RH  066%=      5-min Rain = 0
KPD4 071407Z 19008KT 26/19 A3008 RMK A01 T02610193  RH  066%=      5-min Rain = 0
KPD4 071408Z 18009KT 26/19 A3008 RMK A01 T02600194  RH  067%=      5-min Rain = 0
KPD4 071409Z 16009KT 26/19 A3008 RMK A01 T02600194  RH  067%=      5-min Rain = 0
KPD4 071410Z 17008KT 26/19 A3008 RMK A01 T02610194  RH  066%=      5-min Rain = 0
KPD4 071411Z 18009KT 26/19 A3008 RMK A01 T02620194  RH  066%=      5-min Rain = 0
KPD4 071412Z 19007KT 26/20 A3008 RMK A01 T02630195  RH  066%=      5-min Rain = 0
KPD4 071413Z 18008KT 26/20 A3008 RMK A01 T02630196  RH  066%=      5-min Rain = 0
KPD4 071414Z 18008KT 26/20 A3008 RMK A01 T02630195  RH  066%=      5-min Rain = 0
KPD4 071415Z 18008KT 26/20 A3008 RMK A01 T02630196  RH  066%=      5-min Rain = 0
KPD4 071416Z 17009KT 27/20 A3008 RMK A01 T02650196  RH  066%=      5-min Rain = 0
KPD4 071417Z 16006KT 27/20 A3008 RMK A01 T02660195  RH  065%=      5-min Rain = 0
KPD4 071418Z 16008KT 27/20 A3008 RMK A01 T02670196  RH  065%=      5-min Rain = 0
KPD4 071419Z 18009KT 27/19 A3008 RMK A01 T02680194  RH  064%=      5-min Rain = 0
KPD4 071420Z 18010KT 27/19 A3008 RMK A01 T02680194  RH  064%=      5-min Rain = 0
KPD4 071421Z 17009KT 27/19 A3008 RMK A01 T02670193  RH  064%=      5-min Rain = 0
KPD4 071422Z 17008KT 27/19 A3008 RMK A01 T02660193  RH  064%=      5-min Rain = 0
KPD4 071423Z 18009KT 27/20 A3008 RMK A01 T02670195  RH  065%=      5-min Rain = 0
KPD4 071424Z 17008KT 27/20 A3008 RMK A01 T02690195  RH  064%=      5-min Rain = 0
KPD4 071425Z 16010KT 27/19 A3008 RMK A01 T02690194  RH  063%=      5-min Rain = 0
KPD4 071426Z 18009KT 27/20 A3008 RMK A01 T02710196  RH  063%=      5-min Rain = 0
KPD4 071427Z 17008KT 27/20 A3008 RMK A01 T02730196  RH  063%=      5-min Rain = 0
KPD4 071428Z 15010KT 28/20 A3008 RMK A01 T02750195  RH  062%=      5-min Rain = 0
KPD4 071429Z 17011KT 28/20 A3008 RMK A01 T02760196  RH  062%=      5-min Rain = 0
KPD4 071430Z 16009KT 28/19 A3008 RMK A01 T02760194  RH  061%=      5-min Rain = 0
KPD4 071431Z 16010KT 28/19 A3008 RMK A01 T02750194  RH  061%=      5-min Rain = 0
KPD4 071432Z 15009KT 27/19 A3008 RMK A01 T02740193  RH  061%=      5-min Rain = 0
KPD4 071433Z 17008KT 28/19 A3008 RMK A01 T02750194  RH  061%=      5-min Rain = 0
KPD4 071434Z 17007KT 28/19 A3008 RMK A01 T02760194  RH  061%=      5-min Rain = 0
KPD4 071435Z 17009KT 28/20 A3008 RMK A01 T02780197  RH  061%=      5-min Rain = 0
KPD4 071436Z 20009KT 28/19 A3008 RMK A01 T02810193  RH  059%=      5-min Rain = 0
KPD4 071437Z 19010KT 28/19 A3008 RMK A01 T02790190  RH  058%=      5-min Rain = 0
KPD4 071438Z 19008KT 28/19 A3008 RMK A01 T02780191  RH  059%=      5-min Rain = 0
KPD4 071439Z 19009KT 28/19 A3008 RMK A01 T02770191  RH  059%=      5-min Rain = 0
KPD4 071440Z 16009KT 28/19 A3008 RMK A01 T02760191  RH  060%=      5-min Rain = 0
KPD4 071441Z 16008KT 28/19 A3008 RMK A01 T02750191  RH  060%=      5-min Rain = 0
KPD4 071442Z 15008KT 28/19 A3008 RMK A01 T02750192  RH  061%=      5-min Rain = 0
KPD4 071443Z 16008KT 28/19 A3008 RMK A01 T02760193  RH  061%=      5-min Rain = 0
KPD4 071444Z 16010KT 28/19 A3008 RMK A01 T02780191  RH  059%=      5-min Rain = 0
KPD4 071445Z 17008KT 28/19 A3008 RMK A01 T02800193  RH  059%=      5-min Rain = 0
KPD4 071446Z 17008KT 28/19 A3008 RMK A01 T02800193  RH  059%=      5-min Rain = 0
KPD4 071447Z 16009KT 28/19 A3008 RMK A01 T02790191  RH  059%=      5-min Rain = 0
KPD4 071448Z 16009KT 28/19 A3008 RMK A01 T02790192  RH  059%=      5-min Rain = 0
KPD4 071449Z 17009KT 28/19 A3008 RMK A01 T02790192  RH  059%=      5-min Rain = 0
KPD4 071450Z 18009KT 28/19 A3008 RMK A01 T02820193  RH  059%=      5-min Rain = 0
KPD4 071451Z 17009KT 28/19 A3008 RMK A01 T02830191  RH  058%=      5-min Rain = 0
KPD4 071452Z 17009KT 28/19 A3008 RMK A01 T02820191  RH  058%=      5-min Rain = 0
KPD4 071453Z 16007KT 28/19 A3008 RMK A01 T02820192  RH  058%=      5-min Rain = 0
KPD4 071454Z 19008KT 28/19 A3008 RMK A01 T02830190  RH  057%=      5-min Rain = 0
KPD4 071455Z 17008KT 28/19 A3008 RMK A01 T02830191  RH  057%=      5-min Rain = 0
KPD4 071456Z 15007KT 28/19 A3008 RMK A01 T02820192  RH  058%=      5-min Rain = 0
KPD4 071457Z 16009KT 28/19 A3008 RMK A01 T02820193  RH  058%=      5-min Rain = 0
KPD4 071458Z 16007KT 28/19 A3008 RMK A01 T02820191  RH  058%=      5-min Rain = 0
KPD4 071459Z 18008KT 28/19 A3008 RMK A01 T02840192  RH  057%=      5-min Rain = 0
KPD4 071500Z 20007KT 28/19 A3008 RMK A01 T02840186  RH  055%=      5-min Rain = 0
KPD4 071501Z 18007KT 28/19 A3008 RMK A01 T02820187  RH  056%=      5-min Rain = 0
KPD4 071502Z 16009KT 28/19 A3008 RMK A01 T02810191  RH  058%=      5-min Rain = 0
KPD4 071503Z 17008KT 28/19 A3008 RMK A01 T02820190  RH  058%=      5-min Rain = 0
KPD4 071504Z 18006KT 28/19 A3008 RMK A01 T02830192  RH  058%=      5-min Rain = 0
KPD4 071505Z 16009KT 29/19 A3008 RMK A01 T02870192  RH  057%=      5-min Rain = 0
KPD4 071506Z 16009KT 29/19 A3008 RMK A01 T02880189  RH  055%=      5-min Rain = 0
KPD4 071507Z 16009KT 29/19 A3008 RMK A01 T02870189  RH  055%=      5-min Rain = 0
KPD4 071508Z 15007KT 29/19 A3008 RMK A01 T02880189  RH  055%=      5-min Rain = 0
KPD4 071509Z 14007KT 29/19 A3008 RMK A01 T02880187  RH  055%=      5-min Rain = 0
KPD4 071510Z 14008KT 29/19 A3008 RMK A01 T02850189  RH  056%=      5-min Rain = 0
KPD4 071511Z 15009KT 29/19 A3008 RMK A01 T02860190  RH  056%=      5-min Rain = 0
KPD4 071512Z 16008KT 29/19 A3008 RMK A01 T02880189  RH  055%=      5-min Rain = 0
KPD4 071513Z 19008KT 29/19 A3008 RMK A01 T02900189  RH  054%=      5-min Rain = 0
KPD4 071514Z 20007KT 29/19 A3008 RMK A01 T02900186  RH  053%=      5-min Rain = 0
KPD4 071515Z 22008KT 29/18 A3008 RMK A01 T02910184  RH  053%=      5-min Rain = 0
KPD4 071516Z 18006KT 29/19 A3008 RMK A01 T02880185  RH  054%=      5-min Rain = 0
KPD4 071517Z 17008KT 29/19 A3008 RMK A01 T02880187  RH  054%=      5-min Rain = 0
KPD4 071518Z 17008KT 29/19 A3008 RMK A01 T02890187  RH  054%=      5-min Rain = 0
KPD4 071519Z 17008KT 29/19 A3008 RMK A01 T02900187  RH  054%=      5-min Rain = 0
KPD4 071520Z 21007KT 29/19 A3008 RMK A01 T02910186  RH  053%=      5-min Rain = 0
KPD4 071521Z 22007KT 29/18 A3008 RMK A01 T02910181  RH  051%=      5-min Rain = 0
KPD4 071522Z 19008KT 29/19 A3008 RMK A01 T02910185  RH  053%=      5-min Rain = 0
KPD4 071523Z 17007KT 29/19 A3008 RMK A01 T02910188  RH  054%=      5-min Rain = 0
KPD4 071524Z 15009KT 29/19 A3008 RMK A01 T02920193  RH  055%=      5-min Rain = 0
KPD4 071525Z 14010KT 30/19 A3008 RMK A01 T02960189  RH  053%=      5-min Rain = 0
KPD4 071526Z 14011KT 29/19 A3008 RMK A01 T02930187  RH  053%=      5-min Rain = 0
KPD4 071527Z 14011KT 29/19 A3008 RMK A01 T02900187  RH  054%=      5-min Rain = 0
KPD4 071528Z 15010KT 29/19 A3008 RMK A01 T02900188  RH  054%=      5-min Rain = 0
KPD4 071529Z 15010KT 29/19 A3008 RMK A01 T02920187  RH  053%=      5-min Rain = 0
KPD4 071530Z 14008KT 29/19 A3008 RMK A01 T02920185  RH  053%=      5-min Rain = 0
KPD4 071531Z 14009KT 29/19 A3008 RMK A01 T02920186  RH  053%=      5-min Rain = 0
KPD4 071532Z 15011KT 29/19 A3008 RMK A01 T02930187  RH  053%=      5-min Rain = 0
KPD4 071533Z 16011KT 29/19 A3008 RMK A01 T02930187  RH  053%=      5-min Rain = 0
KPD4 071534Z 16010KT 29/19 A3008 RMK A01 T02910188  RH  054%=      5-min Rain = 0
KPD4 071535Z 15009KT 29/19 A3008 RMK A01 T02920188  RH  053%=      5-min Rain = 0
KPD4 071536Z 16010KT 30/19 A3008 RMK A01 T02950188  RH  053%=      5-min Rain = 0
KPD4 071537Z 16009KT 30/19 A3008 RMK A01 T02960186  RH  052%=      5-min Rain = 0
KPD4 071538Z 15006KT 29/18 A3008 RMK A01 T02940184  RH  051%=      5-min Rain = 0
KPD4 071539Z 14008KT 29/19 A3008 RMK A01 T02920187  RH  053%=      5-min Rain = 0
KPD4 071540Z 14010KT 29/19 A3008 RMK A01 T02940189  RH  053%=      5-min Rain = 0
KPD4 071541Z 14009KT 30/19 A3008 RMK A01 T02960188  RH  052%=      5-min Rain = 0
KPD4 071542Z 15010KT 30/19 A3008 RMK A01 T02960190  RH  053%=      5-min Rain = 0
KPD4 071543Z 15010KT 30/19 A3008 RMK A01 T02960189  RH  052%=      5-min Rain = 0
KPD4 071544Z 15009KT 30/19 A3008 RMK A01 T02980185  RH  051%=      5-min Rain = 0
KPD4 071545Z 15011KT 30/19 A3008 RMK A01 T02960185  RH  051%=      5-min Rain = 0
KPD4 071546Z 16009KT 29/19 A3008 RMK A01 T02940185  RH  052%=      5-min Rain = 0
KPD4 071547Z 14008KT 29/19 A3008 RMK A01 T02920186  RH  053%=      5-min Rain = 0
KPD4 071548Z 15008KT 29/19 A3008 RMK A01 T02940186  RH  052%=      5-min Rain = 0
KPD4 071549Z 16008KT 30/19 A3008 RMK A01 T02960187  RH  052%=      5-min Rain = 0
KPD4 071550Z 14008KT 30/19 A3008 RMK A01 T02970188  RH  052%=      5-min Rain = 0
KPD4 071551Z 16011KT 30/19 A3008 RMK A01 T02980186  RH  051%=      5-min Rain = 0
KPD4 071552Z 17008KT 30/18 A3008 RMK A01 T02990184  RH  050%=      5-min Rain = 0
KPD4 071553Z 17010KT 30/18 A3008 RMK A01 T02990184  RH  050%=      5-min Rain = 0
KPD4 071554Z 18010KT 30/18 A3008 RMK A01 T03010184  RH  050%=      5-min Rain = 0
KPD4 071555Z 19009KT 30/18 A3008 RMK A01 T03010183  RH  049%=      5-min Rain = 0
KPD4 071556Z 16008KT 30/18 A3008 RMK A01 T03000184  RH  050%=      5-min Rain = 0
KPD4 071557Z 15005KT 30/18 A3008 RMK A01 T02990180  RH  049%=      5-min Rain = 0
KPD4 071558Z 14006KT 30/18 A3008 RMK A01 T02950180  RH  050%=      5-min Rain = 0
KPD4 071559Z 15007KT 30/18 A3008 RMK A01 T02950182  RH  051%=      5-min Rain = 0
KPD4 071600Z 15008KT 30/18 A3008 RMK A01 T02970184  RH  051%=      5-min Rain = 0
KPD4 071601Z 16010KT 30/19 A3008 RMK A01 T03000186  RH  050%=      5-min Rain = 0
KPD4 071602Z 15009KT 30/18 A3008 RMK A01 T03010184  RH  049%=      5-min Rain = 0
KPD4 071603Z 14009KT 30/18 A3008 RMK A01 T02990184  RH  050%=      5-min Rain = 0
KPD4 071604Z 13009KT 30/18 A3008 RMK A01 T02990183  RH  050%=      5-min Rain = 0
KPD4 071605Z 15009KT 30/18 A3008 RMK A01 T02990184  RH  050%=      5-min Rain = 0
KPD4 071606Z 16008KT 30/19 A3008 RMK A01 T02990186  RH  051%=      5-min Rain = 0
KPD4 071607Z 17006KT 30/19 A3008 RMK A01 T03020186  RH  050%=      5-min Rain = 0
KPD4 071608Z 18009KT 31/19 A3008 RMK A01 T03070188  RH  049%=      5-min Rain = 0
KPD4 071609Z 17009KT 31/18 A3008 RMK A01 T03090183  RH  047%=      5-min Rain = 0
KPD4 071610Z 18009KT 31/18 A3008 RMK A01 T03060180  RH  047%=      5-min Rain = 0
KPD4 071611Z 15008KT 30/18 A3008 RMK A01 T03030177  RH  047%=      5-min Rain = 0
KPD4 071612Z 15007KT 30/18 A3008 RMK A01 T03000178  RH  048%=      5-min Rain = 0
KPD4 071613Z 16009G14KT 30/18 A3008 RMK A01 T03010178  RH  048%=      5-min Rain = 0
KPD4 071614Z 16010KT 30/18 A3008 RMK A01 T03010178  RH  048%=      5-min Rain = 0
KPD4 071615Z 16011KT 30/18 A3008 RMK A01 T03020178  RH  048%=      5-min Rain = 0
KPD4 071616Z 15010KT 30/18 A3008 RMK A01 T03030178  RH  047%=      5-min Rain = 0
KPD4 071617Z 15010KT 30/18 A3008 RMK A01 T03030178  RH  047%=      5-min Rain = 0
KPD4 071618Z 18009KT 30/18 A3007 RMK A01 T03010178  RH  048%=      5-min Rain = 0
KPD4 071619Z 16009KT 30/18 A3007 RMK A01 T03020180  RH  048%=      5-min Rain = 0
KPD4 071620Z 13009KT 30/18 A3007 RMK A01 T03030179  RH  048%=      5-min Rain = 0
KPD4 071621Z 15009KT 30/18 A3007 RMK A01 T03020180  RH  048%=      5-min Rain = 0
KPD4 071622Z 15011KT 30/18 A3007 RMK A01 T03020177  RH  047%=      5-min Rain = 0
KPD4 071623Z 19010KT 30/18 A3007 RMK A01 T03040176  RH  046%=      5-min Rain = 0
KPD4 071624Z 16012KT 31/18 A3007 RMK A01 T03060178  RH  047%=      5-min Rain = 0
KPD4 071625Z 14009KT 31/18 A3007 RMK A01 T03050177  RH  046%=      5-min Rain = 0
KPD4 071626Z 14009KT 30/18 A3007 RMK A01 T03030180  RH  048%=      5-min Rain = 0
KPD4 071627Z 14011KT 30/18 A3007 RMK A01 T03030180  RH  048%=      5-min Rain = 0
KPD4 071628Z 13009KT 30/18 A3007 RMK A01 T03030178  RH  047%=      5-min Rain = 0
KPD4 071629Z 15007KT 30/18 A3007 RMK A01 T03020176  RH  047%=      5-min Rain = 0
KPD4 071630Z 16010KT 30/18 A3007 RMK A01 T03030177  RH  047%=      5-min Rain = 0
KPD4 071631Z 16009KT 31/17 A3007 RMK A01 T03050172  RH  045%=      5-min Rain = 0
KPD4 071632Z 16010KT 30/18 A3007 RMK A01 T03040175  RH  046%=      5-min Rain = 0
KPD4 071633Z 15009KT 31/18 A3007 RMK A01 T03050175  RH  046%=      5-min Rain = 0
KPD4 071634Z 15009KT 31/18 A3007 RMK A01 T03070177  RH  046%=      5-min Rain = 0
KPD4 071635Z 13008KT 31/18 A3007 RMK A01 T03060177  RH  046%=      5-min Rain = 0
KPD4 071636Z 14007KT 30/18 A3007 RMK A01 T03030178  RH  047%=      5-min Rain = 0
KPD4 071637Z 14005KT 30/18 A3007 RMK A01 T03020175  RH  046%=      5-min Rain = 0
KPD4 071638Z 15007KT 30/18 A3007 RMK A01 T03000179  RH  048%=      5-min Rain = 0
KPD4 071639Z 16009KT 30/18 A3007 RMK A01 T03030175  RH  047%=      5-min Rain = 0
KPD4 071640Z 18008KT 31/17 A3007 RMK A01 T03050172  RH  045%=      5-min Rain = 0
KPD4 071641Z 18007KT 31/17 A3007 RMK A01 T03100172  RH  044%=      5-min Rain = 0
KPD4 071642Z 18006KT 31/17 A3007 RMK A01 T03110165  RH  042%=      5-min Rain = 0
KPD4 071643Z 18006KT 31/17 A3007 RMK A01 T03090170  RH  044%=      5-min Rain = 0
KPD4 071644Z 17004KT 31/17 A3007 RMK A01 T03070172  RH  044%=      5-min Rain = 0
KPD4 071645Z 15009KT 31/18 A3007 RMK A01 T03080178  RH  046%=      5-min Rain = 0
KPD4 071646Z 16008KT 31/17 A3007 RMK A01 T03120172  RH  043%=      5-min Rain = 0
KPD4 071647Z 16011KT 31/18 A3007 RMK A01 T03120175  RH  044%=      5-min Rain = 0
KPD4 071648Z 16010KT 31/17 A3007 RMK A01 T03130173  RH  043%=      5-min Rain = 0
KPD4 071649Z 16008KT 31/17 A3007 RMK A01 T03110169  RH  043%=      5-min Rain = 0
KPD4 071650Z 17010KT 31/17 A3007 RMK A01 T03080173  RH  045%=      5-min Rain = 0
KPD4 071651Z 14010KT 31/18 A3007 RMK A01 T03080177  RH  045%=      5-min Rain = 0
KPD4 071652Z 14009KT 31/18 A3007 RMK A01 T03110176  RH  044%=      5-min Rain = 0
KPD4 071653Z 13009KT 31/17 A3007 RMK A01 T03110174  RH  044%=      5-min Rain = 0
KPD4 071654Z 14011KT 31/17 A3007 RMK A01 T03090174  RH  044%=      5-min Rain = 0
KPD4 071655Z 13007G12KT 31/17 A3007 RMK A01 T03070173  RH  044%=      5-min Rain = 0
KPD4 071656Z 12006KT 31/17 A3007 RMK A01 T03070174  RH  045%=      5-min Rain = 0
KPD4 071657Z 12007KT 31/18 A3007 RMK A01 T03060175  RH  045%=      5-min Rain = 0
KPD4 071658Z 15009KT 31/17 A3007 RMK A01 T03080174  RH  045%=      5-min Rain = 0
KPD4 071659Z 15010KT 31/18 A3007 RMK A01 T03090176  RH  045%=      5-min Rain = 0
KPD4 071700Z 13010KT 31/18 A3007 RMK A01 T03090176  RH  045%=      5-min Rain = 0
KPD4 071701Z 16009KT 31/18 A3007 RMK A01 T03110175  RH  044%=      5-min Rain = 0
KPD4 071702Z 13010KT 31/17 A3007 RMK A01 T03140174  RH  043%=      5-min Rain = 0
KPD4 071703Z 13011KT 31/17 A3007 RMK A01 T03140174  RH  043%=      5-min Rain = 0
KPD4 071704Z 12009KT 31/17 A3006 RMK A01 T03130173  RH  043%=      5-min Rain = 0
KPD4 071705Z 12010KT 31/17 A3006 RMK A01 T03100172  RH  044%=      5-min Rain = 0
KPD4 071706Z 13007KT 31/17 A3006 RMK A01 T03070171  RH  044%=      5-min Rain = 0
KPD4 071707Z 14009G15KT 31/18 A3006 RMK A01 T03060175  RH  045%=      5-min Rain = 0
KPD4 071708Z 16014KT 31/17 A3006 RMK A01 T03100173  RH  044%=      5-min Rain = 0
KPD4 071709Z 16012KT 31/17 A3006 RMK A01 T03110174  RH  044%=      5-min Rain = 0
KPD4 071710Z 15005KT 31/17 A3006 RMK A01 T03120171  RH  043%=      5-min Rain = 0
KPD4 071711Z 13009KT 31/17 A3006 RMK A01 T03090172  RH  044%=      5-min Rain = 0
KPD4 071712Z 13010KT 31/17 A3006 RMK A01 T03100171  RH  043%=      5-min Rain = 0
KPD4 071713Z 13010KT 31/17 A3006 RMK A01 T03110169  RH  043%=      5-min Rain = 0
KPD4 071714Z 15008KT 31/17 A3006 RMK A01 T03120167  RH  042%=      5-min Rain = 0
KPD4 071715Z 14011KT 31/17 A3006 RMK A01 T03110170  RH  043%=      5-min Rain = 0
KPD4 071716Z 15013KT 31/17 A3006 RMK A01 T03110170  RH  043%=      5-min Rain = 0
KPD4 071717Z 16012KT 31/17 A3006 RMK A01 T03130171  RH  043%=      5-min Rain = 0
KPD4 071718Z 14011KT 32/17 A3006 RMK A01 T03150169  RH  042%=      5-min Rain = 0
KPD4 071719Z 15011KT 32/17 A3006 RMK A01 T03150171  RH  042%=      5-min Rain = 0
KPD4 071720Z 15011KT 32/17 A3006 RMK A01 T03160168  RH  041%=      5-min Rain = 0
KPD4 071721Z 12007KT 32/17 A3006 RMK A01 T03160166  RH  041%=      5-min Rain = 0
KPD4 071722Z 13005KT 31/17 A3006 RMK A01 T03140166  RH  041%=      5-min Rain = 0
KPD4 071723Z 13005KT 31/17 A3006 RMK A01 T03130168  RH  042%=      5-min Rain = 0
KPD4 071724Z 13009KT 31/17 A3006 RMK A01 T03140168  RH  042%=      5-min Rain = 0
KPD4 071725Z 14010KT 32/17 A3006 RMK A01 T03150166  RH  041%=      5-min Rain = 0
KPD4 071726Z 13012KT 32/17 A3006 RMK A01 T03150165  RH  041%=      5-min Rain = 0
KPD4 071727Z 16011KT 31/17 A3006 RMK A01 T03130168  RH  042%=      5-min Rain = 0
KPD4 071728Z 18008KT 32/17 A3006 RMK A01 T03150166  RH  041%=      5-min Rain = 0
KPD4 071729Z 16010KT 32/17 A3006 RMK A01 T03150166  RH  041%=      5-min Rain = 0
KPD4 071730Z 14012KT 32/16 A3006 RMK A01 T03150159  RH  039%=      5-min Rain = 0
KPD4 071731Z 15013KT 31/16 A3006 RMK A01 T03140161  RH  040%=      5-min Rain = 0
KPD4 071732Z 16009KT 31/16 A3006 RMK A01 T03140161  RH  040%=      5-min Rain = 0
KPD4 071733Z 17007KT 31/16 A3006 RMK A01 T03140162  RH  040%=      5-min Rain = 0
KPD4 071734Z 13006KT 32/16 A3006 RMK A01 T03150164  RH  040%=      5-min Rain = 0
KPD4 071735Z 13006KT 32/16 A3006 RMK A01 T03170160  RH  039%=      5-min Rain = 0
KPD4 071736Z 16008KT 32/17 A3006 RMK A01 T03180167  RH  040%=      5-min Rain = 0
KPD4 071737Z 18007KT 32/16 A3006 RMK A01 T03200164  RH  039%=      5-min Rain = 0
KPD4 071738Z 15008KT 32/17 A3006 RMK A01 T03180166  RH  040%=      5-min Rain = 0
KPD4 071739Z 15010KT 32/17 A3006 RMK A01 T03200169  RH  040%=      5-min Rain = 0
KPD4 071740Z 16012KT 33/16 A3006 RMK A01 T03260163  RH  038%=      5-min Rain = 0
KPD4 071741Z 16010KT 33/16 A3006 RMK A01 T03260159  RH  037%=      5-min Rain = 0
KPD4 071742Z 17008KT 32/16 A3006 RMK A01 T03200158  RH  038%=      5-min Rain = 0
KPD4 071743Z 18008KT 32/16 A3006 RMK A01 T03170156  RH  038%=      5-min Rain = 0
KPD4 071744Z 19010KT 31/16 A3006 RMK A01 T03140158  RH  039%=      5-min Rain = 0
KPD4 071745Z 17009KT 32/16 A3006 RMK A01 T03180159  RH  038%=      5-min Rain = 0
KPD4 071746Z 16009KT 32/16 A3006 RMK A01 T03230158  RH  037%=      5-min Rain = 0
KPD4 071747Z 17009KT 33/15 A3006 RMK A01 T03270153  RH  035%=      5-min Rain = 0
KPD4 071748Z 16008KT 33/16 A3006 RMK A01 T03250155  RH  036%=      5-min Rain = 0
KPD4 071749Z 17008KT 32/16 A3006 RMK A01 T03210155  RH  037%=      5-min Rain = 0
KPD4 071750Z 20007KT 32/16 A3006 RMK A01 T03200160  RH  038%=      5-min Rain = 0
KPD4 071751Z 17006KT 32/16 A3006 RMK A01 T03170163  RH  040%=      5-min Rain = 0
KPD4 071752Z 17010KT 32/16 A3006 RMK A01 T03160164  RH  040%=      5-min Rain = 0
KPD4 071753Z 18012G17KT 32/17 A3006 RMK A01 T03200168  RH  040%=      5-min Rain = 0
KPD4 071754Z 16012KT 32/17 A3006 RMK A01 T03240167  RH  039%=      5-min Rain = 0
KPD4 071755Z 17009KT 32/17 A3005 RMK A01 T03220168  RH  040%=      5-min Rain = 0
KPD4 071756Z 18009KT 32/17 A3005 RMK A01 T03220170  RH  040%=      5-min Rain = 0
KPD4 071757Z 18010KT 33/17 A3005 RMK A01 T03260170  RH  039%=      5-min Rain = 0
KPD4 071758Z 20007KT 32/17 A3005 RMK A01 T03230170  RH  040%=      5-min Rain = 0
KPD4 071759Z 18007KT 32/17 A3005 RMK A01 T03220174  RH  041%=      5-min Rain = 0
KPD4 071800Z 15012KT 32/17 A3005 RMK A01 T03240172  RH  040%=      5-min Rain = 0
KPD4 071801Z 15010KT 33/17 A3005 RMK A01 T03250168  RH  039%=      5-min Rain = 0
KPD4 071802Z 14011KT 32/17 A3005 RMK A01 T03210168  RH  040%=      5-min Rain = 0
KPD4 071803Z 14011KT 32/17 A3005 RMK A01 T03210170  RH  040%=      5-min Rain = 0
KPD4 071804Z 15008KT 32/17 A3005 RMK A01 T03190167  RH  040%=      5-min Rain = 0
KPD4 071805Z 16008KT 32/17 A3005 RMK A01 T03160169  RH  041%=      5-min Rain = 0
KPD4 071806Z 17008KT 32/17 A3005 RMK A01 T03170168  RH  041%=      5-min Rain = 0
KPD4 071807Z 16007KT 31/17 A3005 RMK A01 T03140170  RH  042%=      5-min Rain = 0
KPD4 071808Z 11008KT 32/17 A3005 RMK A01 T03180170  RH  041%=      5-min Rain = 0
KPD4 071809Z 12013KT 32/17 A3005 RMK A01 T03200170  RH  041%=      5-min Rain = 0
KPD4 071810Z 12012KT 32/17 A3005 RMK A01 T03220170  RH  040%=      5-min Rain = 0
KPD4 071811Z 11011KT 32/17 A3005 RMK A01 T03220167  RH  039%=      5-min Rain = 0
KPD4 071812Z 12011KT 32/17 A3005 RMK A01 T03200167  RH  040%=      5-min Rain = 0
KPD4 071813Z 12012KT 32/17 A3005 RMK A01 T03210169  RH  040%=      5-min Rain = 0
KPD4 071814Z 12013KT 32/17 A3005 RMK A01 T03230168  RH  039%=      5-min Rain = 0
KPD4 071815Z 12014KT 32/17 A3005 RMK A01 T03240170  RH  040%=      5-min Rain = 0
KPD4 071816Z 11013KT 32/17 A3005 RMK A01 T03230169  RH  040%=      5-min Rain = 0
KPD4 071817Z 14010KT 32/17 A3005 RMK A01 T03210170  RH  040%=      5-min Rain = 0
KPD4 071818Z 15010KT 32/17 A3005 RMK A01 T03220169  RH  040%=      5-min Rain = 0
KPD4 071819Z 15010KT 32/17 A3005 RMK A01 T03210172  RH  041%=      5-min Rain = 0
KPD4 071820Z 15011G17KT 32/17 A3005 RMK A01 T03200171  RH  041%=      5-min Rain = 0
KPD4 071821Z 13015KT 32/18 A3005 RMK A01 T03210179  RH  043%=      5-min Rain = 0
KPD4 071822Z 14012KT 32/18 A3005 RMK A01 T03220176  RH  042%=      5-min Rain = 0
KPD4 071823Z 13014KT 32/18 A3005 RMK A01 T03210179  RH  043%=      5-min Rain = 0
KPD4 071824Z 13012KT 32/18 A3005 RMK A01 T03230179  RH  042%=      5-min Rain = 0
KPD4 071825Z 13008KT 32/18 A3005 RMK A01 T03230176  RH  042%=      5-min Rain = 0
KPD4 071826Z 15007KT 32/18 A3005 RMK A01 T03190178  RH  043%=      5-min Rain = 0
KPD4 071827Z 14012G17KT 32/18 A3005 RMK A01 T03200180  RH  043%=      5-min Rain = 0
KPD4 071828Z 13012G17KT 32/18 A3005 RMK A01 T03220175  RH  042%=      5-min Rain = 0
KPD4 071829Z 14008KT 32/17 A3005 RMK A01 T03170172  RH  042%=      5-min Rain = 0
KPD4 071830Z 14008KT 31/17 A3005 RMK A01 T03130173  RH  043%=      5-min Rain = 0
KPD4 071831Z 15011KT 31/17 A3005 RMK A01 T03140171  RH  042%=      5-min Rain = 0
KPD4 071832Z 16011KT 32/17 A3005 RMK A01 T03170168  RH  041%=      5-min Rain = 0
KPD4 071833Z 17008KT 32/16 A3005 RMK A01 T03210164  RH  039%=      5-min Rain = 0
KPD4 071834Z 17007KT 32/17 A3005 RMK A01 T03200167  RH  040%=      5-min Rain = 0
KPD4 071835Z 16009KT 32/17 A3005 RMK A01 T03240165  RH  039%=      5-min Rain = 0
KPD4 071836Z 13011KT 33/17 A3004 RMK A01 T03270168  RH  039%=      5-min Rain = 0
KPD4 071837Z 12012KT 33/17 A3004 RMK A01 T03280170  RH  039%=      5-min Rain = 0
KPD4 071838Z 13012KT 33/17 A3004 RMK A01 T03260171  RH  039%=      5-min Rain = 0
KPD4 071839Z 12013KT 33/17 A3004 RMK A01 T03270172  RH  040%=      5-min Rain = 0
KPD4 071840Z 12014KT 33/17 A3004 RMK A01 T03290171  RH  039%=      5-min Rain = 0
KPD4 071841Z 12009KT 33/17 A3004 RMK A01 T03300171  RH  039%=      5-min Rain = 0
KPD4 071842Z 12006KT 33/17 A3004 RMK A01 T03310172  RH  039%=      5-min Rain = 0
KPD4 071843Z 12011KT 33/17 A3004 RMK A01 T03330167  RH  037%=      5-min Rain = 0
KPD4 071844Z 12010KT 33/17 A3004 RMK A01 T03320165  RH  037%=      5-min Rain = 0
KPD4 071845Z 13012KT 33/17 A3004 RMK A01 T03290167  RH  038%=      5-min Rain = 0
KPD4 071846Z 15012KT 33/17 A3004 RMK A01 T03280166  RH  038%=      5-min Rain = 0
KPD4 071847Z 13010KT 33/17 A3004 RMK A01 T03250165  RH  038%=      5-min Rain = 0
KPD4 071848Z 14010KT 32/17 A3004 RMK A01 T03230167  RH  039%=      5-min Rain = 0
KPD4 071849Z 15013KT 33/17 A3004 RMK A01 T03270172  RH  040%=      5-min Rain = 0
KPD4 071850Z 15011G17KT 33/17 A3004 RMK A01 T03300167  RH  038%=      5-min Rain = 0
KPD4 071851Z 15015KT 33/17 A3004 RMK A01 T03300167  RH  038%=      5-min Rain = 0
KPD4 071852Z 14012KT 33/16 A3004 RMK A01 T03310164  RH  037%=      5-min Rain = 0
KPD4 071853Z 14009KT 33/17 A3004 RMK A01 T03280167  RH  038%=      5-min Rain = 0
KPD4 071854Z 14009KT 33/17 A3004 RMK A01 T03270167  RH  039%=      5-min Rain = 0
KPD4 071855Z 13008KT 33/16 A3004 RMK A01 T03260164  RH  038%=      5-min Rain = 0
KPD4 071856Z 12009G14KT 33/16 A3004 RMK A01 T03250164  RH  038%=      5-min Rain = 0
KPD4 071857Z 14014KT 32/17 A3004 RMK A01 T03240166  RH  039%=      5-min Rain = 0
KPD4 071858Z 15013KT 33/16 A3004 RMK A01 T03270164  RH  037%=      5-min Rain = 0
KPD4 071859Z 13009KT 33/17 A3004 RMK A01 T03280167  RH  038%=      5-min Rain = 0
KPD4 071900Z 13008KT 33/17 A3003 RMK A01 T03280166  RH  038%=      5-min Rain = 0
KPD4 071901Z 16012KT 33/17 A3003 RMK A01 T03280165  RH  038%=      5-min Rain = 0
KPD4 071902Z 16009KT 33/17 A3003 RMK A01 T03290166  RH  038%=      5-min Rain = 0
KPD4 071903Z 13011KT 33/17 A3003 RMK A01 T03290166  RH  038%=      5-min Rain = 0
KPD4 071904Z 13012KT 33/17 A3003 RMK A01 T03290165  RH  037%=      5-min Rain = 0
KPD4 071905Z 14011G18KT 33/17 A3003 RMK A01 T03290168  RH  038%=      5-min Rain = 0
KPD4 071906Z 13012KT 33/17 A3003 RMK A01 T03320165  RH  037%=      5-min Rain = 0
KPD4 071907Z 15009KT 33/17 A3003 RMK A01 T03310166  RH  037%=      5-min Rain = 0
KPD4 071908Z 14014KT 33/17 A3003 RMK A01 T03310165  RH  037%=      5-min Rain = 0
KPD4 071909Z 13012KT 33/16 A3003 RMK A01 T03320164  RH  037%=      5-min Rain = 0
KPD4 071910Z 14013G19KT 33/17 A3003 RMK A01 T03310165  RH  037%=      5-min Rain = 0
KPD4 071911Z 14009G17KT 33/16 A3003 RMK A01 T03320161  RH  036%=      5-min Rain = 0
KPD4 071912Z 14008G14KT 33/16 A3003 RMK A01 T03280163  RH  037%=      5-min Rain = 0
KPD4 071913Z 14014KT 33/16 A3003 RMK A01 T03280163  RH  037%=      5-min Rain = 0
KPD4 071914Z 13011KT 33/16 A3003 RMK A01 T03280163  RH  037%=      5-min Rain = 0
KPD4 071915Z 13014KT 33/16 A3003 RMK A01 T03290164  RH  037%=      5-min Rain = 0
KPD4 071916Z 12012KT 33/16 A3003 RMK A01 T03290161  RH  037%=      5-min Rain = 0
KPD4 071917Z 11010KT 33/16 A3003 RMK A01 T03280160  RH  037%=      5-min Rain = 0
KPD4 071918Z 11013G18KT 33/16 A3003 RMK A01 T03280162  RH  037%=      5-min Rain = 0
KPD4 071919Z 11010KT 33/16 A3003 RMK A01 T03290163  RH  037%=      5-min Rain = 0
KPD4 071920Z 12009KT 33/17 A3003 RMK A01 T03310166  RH  037%=      5-min Rain = 0
KPD4 071921Z 14012KT 33/16 A3003 RMK A01 T03330163  RH  036%=      5-min Rain = 0
KPD4 071922Z 13010KT 33/16 A3003 RMK A01 T03270158  RH  036%=      5-min Rain = 0
KPD4 071923Z 14012G18KT 32/16 A3003 RMK A01 T03220161  RH  038%=      5-min Rain = 0
KPD4 071924Z 16014KT 33/17 A3003 RMK A01 T03250167  RH  039%=      5-min Rain = 0
KPD4 071925Z 14015KT 33/17 A3002 RMK A01 T03290166  RH  038%=      5-min Rain = 0
KPD4 071926Z 13015KT 33/17 A3003 RMK A01 T03320166  RH  037%=      5-min Rain = 0
KPD4 071927Z 14012KT 33/16 A3003 RMK A01 T03310160  RH  036%=      5-min Rain = 0
KPD4 071928Z 14011KT 32/16 A3002 RMK A01 T03240159  RH  037%=      5-min Rain = 0
KPD4 071929Z 14011KT 32/16 A3002 RMK A01 T03210162  RH  038%=      5-min Rain = 0
KPD4 071930Z 12013KT 33/16 A3002 RMK A01 T03250163  RH  038%=      5-min Rain = 0
KPD4 071931Z 11012KT 33/16 A3002 RMK A01 T03280162  RH  037%=      5-min Rain = 0
KPD4 071932Z 12015KT 33/16 A3002 RMK A01 T03280164  RH  037%=      5-min Rain = 0
KPD4 071933Z 13017KT 33/16 A3002 RMK A01 T03300164  RH  037%=      5-min Rain = 0
KPD4 071934Z 13017KT 33/16 A3002 RMK A01 T03320163  RH  036%=      5-min Rain = 0
KPD4 071935Z 11013KT 33/16 A3002 RMK A01 T03300164  RH  037%=      5-min Rain = 0
KPD4 071936Z 11012KT 33/17 A3002 RMK A01 T03300165  RH  037%=      5-min Rain = 0
KPD4 071937Z 11011KT 33/17 A3002 RMK A01 T03330166  RH  037%=      5-min Rain = 0
KPD4 071938Z 12016KT 34/17 A3002 RMK A01 T03370166  RH  036%=      5-min Rain = 0
KPD4 071939Z 12015KT 34/16 A3002 RMK A01 T03380164  RH  035%=      5-min Rain = 0
KPD4 071940Z 12011KT 33/16 A3002 RMK A01 T03340159  RH  035%=      5-min Rain = 0
KPD4 071941Z 13013G18KT 33/16 A3002 RMK A01 T03290162  RH  037%=      5-min Rain = 0
KPD4 071942Z 13015KT 33/16 A3002 RMK A01 T03300162  RH  037%=      5-min Rain = 0
KPD4 071943Z 13011KT 33/16 A3002 RMK A01 T03300161  RH  036%=      5-min Rain = 0
KPD4 071944Z 13013KT 33/16 A3002 RMK A01 T03280162  RH  037%=      5-min Rain = 0
KPD4 071945Z 12015KT 33/16 A3002 RMK A01 T03270161  RH  037%=      5-min Rain = 0
KPD4 071946Z 11013KT 33/16 A3001 RMK A01 T03280161  RH  037%=      5-min Rain = 0
KPD4 071947Z 10014KT 33/16 A3001 RMK A01 T03290161  RH  036%=      5-min Rain = 0
KPD4 071948Z 11013KT 33/16 A3001 RMK A01 T03300161  RH  036%=      5-min Rain = 0
KPD4 071949Z 12014KT 33/16 A3001 RMK A01 T03330162  RH  036%=      5-min Rain = 0
KPD4 071950Z 14013KT 34/16 A3001 RMK A01 T03370162  RH  035%=      5-min Rain = 0
KPD4 071951Z 16013KT 34/16 A3001 RMK A01 T03370161  RH  035%=      5-min Rain = 0
KPD4 071952Z 17014KT 34/16 A3001 RMK A01 T03350159  RH  035%=      5-min Rain = 0
KPD4 071953Z 16009KT 33/16 A3001 RMK A01 T03290156  RH  035%=      5-min Rain = 0
KPD4 071954Z 12014KT 33/16 A3001 RMK A01 T03280159  RH  036%=      5-min Rain = 0
KPD4 071955Z 11013KT 33/16 A3001 RMK A01 T03320158  RH  035%=      5-min Rain = 0
KPD4 071956Z 12013KT 33/16 A3001 RMK A01 T03320158  RH  035%=      5-min Rain = 0
KPD4 071957Z 14018KT 33/16 A3001 RMK A01 T03330158  RH  035%=      5-min Rain = 0
KPD4 071958Z 13018KT 34/16 A3001 RMK A01 T03350157  RH  035%=      5-min Rain = 0
KPD4 071959Z 14015KT 34/16 A3001 RMK A01 T03350156  RH  034%=      5-min Rain = 0
KPD4 072000Z 14012KT 33/16 A3001 RMK A01 T03340156  RH  034%=      5-min Rain = 0
KPD4 072001Z 13009KT 33/16 A3001 RMK A01 T03330156  RH  035%=      5-min Rain = 0
KPD4 072002Z 12009KT 33/16 A3001 RMK A01 T03340156  RH  035%=      5-min Rain = 0
KPD4 072003Z 12015KT 33/16 A3001 RMK A01 T03340156  RH  034%=      5-min Rain = 0
KPD4 072004Z 13017KT 34/15 A3001 RMK A01 T03350154  RH  034%=      5-min Rain = 0
KPD4 072005Z 13015KT 34/15 A3001 RMK A01 T03350152  RH  034%=      5-min Rain = 0
KPD4 072006Z 12015KT 33/15 A3001 RMK A01 T03330151  RH  033%=      5-min Rain = 0
KPD4 072007Z 13010KT 33/15 A3001 RMK A01 T03310151  RH  034%=      5-min Rain = 0
KPD4 072008Z 12011G16KT 33/15 A3001 RMK A01 T03310154  RH  035%=      5-min Rain = 0
KPD4 072009Z 11012KT 33/15 A3001 RMK A01 T03340154  RH  034%=      5-min Rain = 0
KPD4 072010Z 10013KT 34/15 A3001 RMK A01 T03370153  RH  033%=      5-min Rain = 0
KPD4 072011Z 11014KT 34/15 A30 RMK A01 T03370152  RH  033%=      5-min Rain = 0
KPD4 072012Z 12012G18KT 34/15 A30 RMK A01 T03360153  RH  033%=      5-min Rain = 0
KPD4 072013Z 15012G18KT 34/16 A3001 RMK A01 T03410156  RH  033%=      5-min Rain = 0
KPD4 072014Z 15012KT 34/16 A3001 RMK A01 T03420155  RH  033%=      5-min Rain = 0
KPD4 072015Z 15008KT 34/15 A30 RMK A01 T03410153  RH  033%=      5-min Rain = 0
KPD4 072016Z 16013G18KT 34/16 A30 RMK A01 T03380155  RH  033%=      5-min Rain = 0
KPD4 072017Z 16010KT 34/15 A3001 RMK A01 T03390150  RH  032%=      5-min Rain = 0
KPD4 072018Z 14010KT 34/15 A30 RMK A01 T03370153  RH  033%=      5-min Rain = 0
KPD4 072019Z 11012KT 34/15 A30 RMK A01 T03380152  RH  033%=      5-min Rain = 0
KPD4 072020Z 12018KT 34/15 A30 RMK A01 T03390152  RH  033%=      5-min Rain = 0
KPD4 072021Z 13012KT 34/15 A30 RMK A01 T03380150  RH  032%=      5-min Rain = 0
KPD4 072022Z 13010KT 34/15 A30 RMK A01 T03350151  RH  033%=      5-min Rain = 0
KPD4 072023Z 13013KT 34/15 A30 RMK A01 T03360149  RH  033%=      5-min Rain = 0
KPD4 072024Z 12013KT 34/15 A30 RMK A01 T03360150  RH  033%=      5-min Rain = 0
KPD4 072025Z 12015KT 34/15 A30 RMK A01 T03380149  RH  032%=      5-min Rain = 0
KPD4 072026Z 13011KT 34/15 A30 RMK A01 T03350151  RH  033%=      5-min Rain = 0
KPD4 072027Z 12011KT 34/15 A30 RMK A01 T03360151  RH  033%=      5-min Rain = 0
KPD4 072028Z 13011KT 34/15 A30 RMK A01 T03370152  RH  033%=      5-min Rain = 0
KPD4 072029Z 12015KT 34/16 A30 RMK A01 T03390158  RH  034%=      5-min Rain = 0
KPD4 072030Z 12016G21KT 34/16 A30 RMK A01 T03400157  RH  033%=      5-min Rain = 0
KPD4 072031Z 13018KT 34/15 A30 RMK A01 T03390153  RH  033%=      5-min Rain = 0
KPD4 072032Z 13017KT 34/15 A30 RMK A01 T03360152  RH  033%=      5-min Rain = 0
KPD4 072033Z 12014KT 34/15 A30 RMK A01 T03350154  RH  034%=      5-min Rain = 0
KPD4 072034Z 12015KT 34/16 A2999 RMK A01 T03360155  RH  034%=      5-min Rain = 0
KPD4 072035Z 11013KT 34/16 A2999 RMK A01 T03380157  RH  034%=      5-min Rain = 0
KPD4 072036Z 13014KT 34/16 A2999 RMK A01 T03390156  RH  034%=      5-min Rain = 0
KPD4 072037Z 15013KT 34/16 A30 RMK A01 T03380156  RH  034%=      5-min Rain = 0
KPD4 072038Z 15008KT 34/15 A2999 RMK A01 T03360152  RH  033%=      5-min Rain = 0
KPD4 072039Z 16008KT 34/16 A2999 RMK A01 T03350156  RH  034%=      5-min Rain = 0
KPD4 072040Z 15013KT 34/16 A2999 RMK A01 T03410160  RH  034%=      5-min Rain = 0
KPD4 072041Z 15015KT 34/16 A2999 RMK A01 T03440157  RH  033%=      5-min Rain = 0
KPD4 072042Z 13013KT 34/16 A2999 RMK A01 T03440156  RH  033%=      5-min Rain = 0
KPD4 072043Z 14012KT 34/15 A2999 RMK A01 T03400154  RH  033%=      5-min Rain = 0
KPD4 072044Z 14016KT 34/15 A2999 RMK A01 T03380154  RH  033%=      5-min Rain = 0
KPD4 072045Z 14013KT 34/15 A2999 RMK A01 T03390151  RH  032%=      5-min Rain = 0
KPD4 072046Z 13014KT 34/15 A2999 RMK A01 T03370152  RH  033%=      5-min Rain = 0
KPD4 072047Z 13012KT 34/15 A2999 RMK A01 T03380154  RH  033%=      5-min Rain = 0
KPD4 072048Z 14012KT 34/15 A2999 RMK A01 T03410153  RH  033%=      5-min Rain = 0
KPD4 072049Z 13012KT 34/15 A2998 RMK A01 T03400154  RH  033%=      5-min Rain = 0
KPD4 072050Z 11015G20KT 34/16 A2998 RMK A01 T03400155  RH  033%=      5-min Rain = 0
KPD4 072051Z 12015G20KT 34/15 A2998 RMK A01 T03420152  RH  032%=      5-min Rain = 0
KPD4 072052Z 11011KT 34/15 A2998 RMK A01 T03390152  RH  033%=      5-min Rain = 0
KPD4 072053Z 13012KT 34/15 A2998 RMK A01 T03380153  RH  033%=      5-min Rain = 0
KPD4 072054Z 14016KT 34/15 A2998 RMK A01 T03400154  RH  033%=      5-min Rain = 0
KPD4 072055Z 15018KT 34/15 A2998 RMK A01 T03410151  RH  032%=      5-min Rain = 0
KPD4 072056Z 14015KT 34/15 A2998 RMK A01 T03400150  RH  032%=      5-min Rain = 0
KPD4 072057Z 14012KT 34/15 A2998 RMK A01 T03400152  RH  032%=      5-min Rain = 0
KPD4 072058Z 14013KT 34/15 A2998 RMK A01 T03420152  RH  032%=      5-min Rain = 0
KPD4 072059Z 15013KT 34/15 A2998 RMK A01 T03420151  RH  032%=      5-min Rain = 0
KPD4 072100Z 15012KT 34/15 A2998 RMK A01 T03410150  RH  032%=      5-min Rain = 0
KPD4 072101Z 16014KT 34/15 A2998 RMK A01 T03390150  RH  032%=      5-min Rain = 0
KPD4 072102Z 16014KT 34/15 A2998 RMK A01 T03400151  RH  032%=      5-min Rain = 0
KPD4 072103Z 13014KT 34/15 A2998 RMK A01 T03410153  RH  032%=      5-min Rain = 0
KPD4 072104Z 14012KT 34/16 A2998 RMK A01 T03440155  RH  032%=      5-min Rain = 0
KPD4 072105Z 15012KT 35/16 A2998 RMK A01 T03460155  RH  032%=      5-min Rain = 0
KPD4 072106Z 14015G20KT 35/15 A2998 RMK A01 T03460153  RH  032%=      5-min Rain = 0
KPD4 072107Z 14018KT 34/15 A2998 RMK A01 T03440152  RH  032%=      5-min Rain = 0
KPD4 072108Z 15014KT 34/15 A2998 RMK A01 T03420149  RH  032%=      5-min Rain = 0
KPD4 072109Z 15012KT 34/15 A2998 RMK A01 T03390149  RH  032%=      5-min Rain = 0
KPD4 072110Z 12015KT 34/15 A2998 RMK A01 T03370151  RH  033%=      5-min Rain = 0
KPD4 072111Z 12018KT 34/15 A2998 RMK A01 T03400151  RH  032%=      5-min Rain = 0
KPD4 072112Z 12013KT 34/15 A2998 RMK A01 T03390150  RH  032%=      5-min Rain = 0
KPD4 072113Z 12014KT 34/15 A2998 RMK A01 T03380151  RH  033%=      5-min Rain = 0
KPD4 072114Z 13013G18KT 34/15 A2998 RMK A01 T03390152  RH  033%=      5-min Rain = 0
KPD4 072115Z 14016KT 34/15 A2998 RMK A01 T03420150  RH  032%=      5-min Rain = 0
KPD4 072116Z 14015KT 34/15 A2998 RMK A01 T03400148  RH  031%=      5-min Rain = 0
KPD4 072117Z 15013KT 34/15 A2998 RMK A01 T03380148  RH  032%=      5-min Rain = 0
KPD4 072118Z 16009KT 34/15 A2997 RMK A01 T03390148  RH  032%=      5-min Rain = 0
KPD4 072119Z 12012KT 34/15 A2997 RMK A01 T03400149  RH  032%=      5-min Rain = 0
KPD4 072120Z 13010KT 34/15 A2997 RMK A01 T03400148  RH  032%=      5-min Rain = 0
KPD4 072121Z 13010KT 34/15 A2997 RMK A01 T03390148  RH  032%=      5-min Rain = 0
KPD4 072122Z 16013G19KT 34/15 A2997 RMK A01 T03400152  RH  032%=      5-min Rain = 0
KPD4 072123Z 13010KT 34/15 A2997 RMK A01 T03430150  RH  032%=      5-min Rain = 0
KPD4 072124Z 12011KT 34/15 A2997 RMK A01 T03430151  RH  032%=      5-min Rain = 0
KPD4 072125Z 12012G17KT 34/15 A2997 RMK A01 T03430151  RH  032%=      5-min Rain = 0
KPD4 072126Z 15015G21KT 34/15 A2997 RMK A01 T03440149  RH  031%=      5-min Rain = 0
KPD4 072127Z 12013KT 34/15 A2997 RMK A01 T03440148  RH  031%=      5-min Rain = 0
KPD4 072128Z 12013KT 34/15 A2997 RMK A01 T03440149  RH  031%=      5-min Rain = 0
KPD4 072129Z 10014KT 34/15 A2997 RMK A01 T03440151  RH  032%=      5-min Rain = 0
KPD4 072130Z 11013KT 34/15 A2997 RMK A01 T03420149  RH  031%=      5-min Rain = 0
KPD4 072131Z 12021G27KT 34/15 A2996 RMK A01 T03410151  RH  032%=      5-min Rain = 0
KPD4 072132Z 13017KT 34/15 A2997 RMK A01 T03400147  RH  031%=      5-min Rain = 0
KPD4 072133Z 14012KT 34/15 A2997 RMK A01 T03410148  RH  031%=      5-min Rain = 0
KPD4 072134Z 13012KT 34/15 A2997 RMK A01 T03430148  RH  031%=      5-min Rain = 0
KPD4 072135Z 14012KT 34/15 A2997 RMK A01 T03430150  RH  031%=      5-min Rain = 0
KPD4 072136Z 14010G17KT 34/15 A2996 RMK A01 T03410149  RH  032%=      5-min Rain = 0
KPD4 072137Z 15014KT 34/15 A2996 RMK A01 T03390150  RH  032%=      5-min Rain = 0
KPD4 072138Z 14014G19KT 34/15 A2996 RMK A01 T03390149  RH  032%=      5-min Rain = 0
KPD4 072139Z 13016KT 34/15 A2996 RMK A01 T03410148  RH  031%=      5-min Rain = 0
KPD4 072140Z 13015KT 34/15 A2996 RMK A01 T03410150  RH  032%=      5-min Rain = 0
KPD4 072141Z 14013KT 34/15 A2996 RMK A01 T03420149  RH  031%=      5-min Rain = 0
KPD4 072142Z 13015KT 34/15 A2996 RMK A01 T03420149  RH  032%=      5-min Rain = 0
KPD4 072143Z 13015KT 34/15 A2996 RMK A01 T03440149  RH  031%=      5-min Rain = 0
KPD4 072144Z 13018G23KT 34/15 A2996 RMK A01 T03430149  RH  031%=      5-min Rain = 0
KPD4 072145Z 12015G20KT 34/15 A2996 RMK A01 T03410149  RH  032%=      5-min Rain = 0
KPD4 072146Z 12018G23KT 34/15 A2996 RMK A01 T03400150  RH  032%=      5-min Rain = 0
KPD4 072147Z 12017G22KT 34/15 A2996 RMK A01 T03400149  RH  032%=      5-min Rain = 0
KPD4 072148Z 14013KT 34/15 A2996 RMK A01 T03380150  RH  032%=      5-min Rain = 0
KPD4 072149Z 14012KT 34/15 A2996 RMK A01 T03400151  RH  032%=      5-min Rain = 0
KPD4 072150Z 12013KT 34/15 A2996 RMK A01 T03410154  RH  033%=      5-min Rain = 0
KPD4 072151Z 12012KT 34/15 A2996 RMK A01 T03440152  RH  032%=      5-min Rain = 0
KPD4 072152Z 11011KT 34/15 A2996 RMK A01 T03410152  RH  032%=      5-min Rain = 0
KPD4 072153Z 13013KT 34/15 A2996 RMK A01 T03390153  RH  033%=      5-min Rain = 0
KPD4 072154Z 13015KT 34/15 A2996 RMK A01 T03400153  RH  033%=      5-min Rain = 0
KPD4 072155Z 12014KT 34/16 A2996 RMK A01 T03420157  RH  033%=      5-min Rain = 0
KPD4 072156Z 13016KT 35/16 A2996 RMK A01 T03460156  RH  032%=      5-min Rain = 0
KPD4 072157Z 12015G20KT 35/15 A2996 RMK A01 T03460153  RH  032%=      5-min Rain = 0
KPD4 072158Z 12016KT 34/15 A2996 RMK A01 T03430154  RH  032%=      5-min Rain = 0
KPD4 072159Z 12013G18KT 34/15 A2995 RMK A01 T03400151  RH  032%=      5-min Rain = 0
KPD4 072200Z 12014KT 34/15 A2995 RMK A01 T03380152  RH  033%=      5-min Rain = 0
KPD4 072201Z 14014KT 34/15 A2996 RMK A01 T03390153  RH  033%=      5-min Rain = 0
KPD4 072202Z 14011KT 34/15 A2996 RMK A01 T03400154  RH  033%=      5-min Rain = 0
KPD4 072203Z 15013KT 34/16 A2995 RMK A01 T03410156  RH  033%=      5-min Rain = 0
KPD4 072204Z 15013KT 34/16 A2995 RMK A01 T03430156  RH  033%=      5-min Rain = 0
KPD4 072205Z 12012G17KT 34/16 A2995 RMK A01 T03440156  RH  033%=      5-min Rain = 0
KPD4 072206Z 11016KT 34/16 A2995 RMK A01 T03440155  RH  032%=      5-min Rain = 0
KPD4 072207Z 13019KT 34/15 A2995 RMK A01 T03430154  RH  032%=      5-min Rain = 0
KPD4 072208Z 12019KT 34/15 A2995 RMK A01 T03400153  RH  033%=      5-min Rain = 0
KPD4 072209Z 12016KT 34/15 A2995 RMK A01 T03380152  RH  033%=      5-min Rain = 0
KPD4 072210Z 12014KT 34/15 A2995 RMK A01 T03370153  RH  033%=      5-min Rain = 0
KPD4 072211Z 12014KT 34/16 A2995 RMK A01 T03380155  RH  033%=      5-min Rain = 0
KPD4 072212Z 12014KT 34/16 A2995 RMK A01 T03410155  RH  033%=      5-min Rain = 0
KPD4 072213Z 11015G20KT 34/15 A2995 RMK A01 T03420154  RH  032%=      5-min Rain = 0
KPD4 072214Z 12014KT 34/15 A2995 RMK A01 T03420152  RH  032%=      5-min Rain = 0
KPD4 072215Z 12016KT 34/15 A2995 RMK A01 T03400149  RH  032%=      5-min Rain = 0
KPD4 072216Z 12018KT 34/15 A2995 RMK A01 T03380148  RH  032%=      5-min Rain = 0
KPD4 072217Z 12015KT 34/15 A2995 RMK A01 T03380149  RH  032%=      5-min Rain = 0
KPD4 072218Z 13014KT 34/15 A2995 RMK A01 T03380149  RH  032%=      5-min Rain = 0
KPD4 072219Z 14013KT 34/15 A2995 RMK A01 T03390150  RH  032%=      5-min Rain = 0
KPD4 072220Z 15015KT 34/15 A2995 RMK A01 T03400150  RH  032%=      5-min Rain = 0
KPD4 072221Z 13018KT 34/15 A2995 RMK A01 T03410148  RH  031%=      5-min Rain = 0
KPD4 072222Z 13017KT 34/15 A2995 RMK A01 T03410146  RH  031%=      5-min Rain = 0
KPD4 072223Z 13014KT 34/15 A2995 RMK A01 T03390145  RH  031%=      5-min Rain = 0
KPD4 072224Z 13013KT 34/15 A2995 RMK A01 T03360146  RH  032%=      5-min Rain = 0
KPD4 072225Z 13016KT 34/15 A2995 RMK A01 T03370149  RH  032%=      5-min Rain = 0
KPD4 072226Z 13014KT 34/15 A2995 RMK A01 T03380149  RH  032%=      5-min Rain = 0
KPD4 072227Z 13012KT 34/15 A2995 RMK A01 T03390148  RH  032%=      5-min Rain = 0
KPD4 072228Z 12013KT 34/15 A2995 RMK A01 T03390150  RH  032%=      5-min Rain = 0
KPD4 072229Z 12014G19KT 34/15 A2995 RMK A01 T03420150  RH  032%=      5-min Rain = 0
KPD4 072230Z 13013KT 34/15 A2995 RMK A01 T03420149  RH  031%=      5-min Rain = 0
KPD4 072231Z 12011KT 34/15 A2995 RMK A01 T03420150  RH  032%=      5-min Rain = 0
KPD4 072232Z 14012KT 34/15 A2995 RMK A01 T03410149  RH  032%=      5-min Rain = 0
KPD4 072233Z 14010KT 34/15 A2995 RMK A01 T03420147  RH  031%=      5-min Rain = 0
KPD4 072234Z 11016KT 34/15 A2995 RMK A01 T03420149  RH  032%=      5-min Rain = 0
KPD4 072235Z 12016KT 34/15 A2995 RMK A01 T03410147  RH  031%=      5-min Rain = 0
KPD4 072236Z 13013KT 34/15 A2995 RMK A01 T03390147  RH  031%=      5-min Rain = 0
KPD4 072237Z 12012KT 34/15 A2995 RMK A01 T03390148  RH  032%=      5-min Rain = 0
KPD4 072238Z 14012KT 34/15 A2995 RMK A01 T03400149  RH  032%=      5-min Rain = 0
KPD4 072239Z 15012KT 34/15 A2995 RMK A01 T03420149  RH  031%=      5-min Rain = 0
KPD4 072240Z 15014KT 34/15 A2995 RMK A01 T03430150  RH  031%=      5-min Rain = 0
KPD4 072241Z 13011KT 34/15 A2995 RMK A01 T03420148  RH  031%=      5-min Rain = 0
KPD4 072242Z 12010KT 34/15 A2995 RMK A01 T03410150  RH  032%=      5-min Rain = 0
KPD4 072243Z 12013KT 34/15 A2995 RMK A01 T03430148  RH  031%=      5-min Rain = 0
KPD4 072244Z 13017KT 34/15 A2995 RMK A01 T03430147  RH  031%=      5-min Rain = 0
KPD4 072245Z 12016KT 34/15 A2995 RMK A01 T03410146  RH  031%=      5-min Rain = 0
KPD4 072246Z 13017KT 34/15 A2995 RMK A01 T03380145  RH  031%=      5-min Rain = 0
KPD4 072247Z 13014KT 34/15 A2995 RMK A01 T03370147  RH  032%=      5-min Rain = 0
KPD4 072248Z 13012KT 34/15 A2995 RMK A01 T03380148  RH  032%=      5-min Rain = 0
KPD4 072249Z 13012KT 34/15 A2995 RMK A01 T03390148  RH  032%=      5-min Rain = 0
KPD4 072250Z 13010KT 34/15 A2995 RMK A01 T03390149  RH  032%=      5-min Rain = 0
KPD4 072251Z 13014G19KT 34/15 A2995 RMK A01 T03390149  RH  032%=      5-min Rain = 0
KPD4 072252Z 12020KT 34/15 A2994 RMK A01 T03420145  RH  031%=      5-min Rain = 0
KPD4 072253Z 13016KT 34/14 A2995 RMK A01 T03390142  RH  031%=      5-min Rain = 0
KPD4 072254Z 13018KT 34/14 A2995 RMK A01 T03370142  RH  031%=      5-min Rain = 0
KPD4 072255Z 13014KT 34/14 A2995 RMK A01 T03360142  RH  031%=      5-min Rain = 0
KPD4 072256Z 13015G20KT 34/14 A2995 RMK A01 T03370143  RH  031%=      5-min Rain = 0
KPD4 072257Z 13013KT 34/14 A2995 RMK A01 T03380144  RH  031%=      5-min Rain = 0
KPD4 072258Z 13013KT 34/15 A2995 RMK A01 T03390147  RH  032%=      5-min Rain = 0
KPD4 072259Z 13018KT 34/14 A2995 RMK A01 T03400144  RH  031%=      5-min Rain = 0
KPD4 072300Z 14016KT 34/14 A2995 RMK A01 T03390142  RH  031%=      5-min Rain = 0
KPD4 072301Z 14013KT 34/14 A2995 RMK A01 T03360141  RH  031%=      5-min Rain = 0
KPD4 072302Z 12011KT 34/14 A2995 RMK A01 T03360144  RH  032%=      5-min Rain = 0
KPD4 072303Z 12012KT 34/15 A2995 RMK A01 T03380148  RH  032%=      5-min Rain = 0
KPD4 072304Z 12015KT 34/15 A2995 RMK A01 T03400149  RH  032%=      5-min Rain = 0
KPD4 072305Z 13014KT 34/15 A2995 RMK A01 T03390146  RH  031%=      5-min Rain = 0
KPD4 072306Z 13015KT 34/15 A2995 RMK A01 T03390145  RH  031%=      5-min Rain = 0
KPD4 072307Z 13016KT 34/14 A2995 RMK A01 T03400144  RH  031%=      5-min Rain = 0
KPD4 072308Z 14015KT 34/14 A2995 RMK A01 T03390142  RH  031%=      5-min Rain = 0
KPD4 072309Z 13014KT 34/14 A2995 RMK A01 T03380143  RH  031%=      5-min Rain = 0
KPD4 072310Z 13016KT 34/14 A2995 RMK A01 T03390143  RH  031%=      5-min Rain = 0
KPD4 072311Z 14015KT 34/14 A2995 RMK A01 T03380143  RH  031%=      5-min Rain = 0
KPD4 072312Z 14013KT 34/14 A2995 RMK A01 T03380143  RH  031%=      5-min Rain = 0
KPD4 072313Z 14012KT 34/14 A2995 RMK A01 T03380143  RH  031%=      5-min Rain = 0
KPD4 072314Z 12012KT 34/14 A2995 RMK A01 T03380142  RH  031%=      5-min Rain = 0
KPD4 072315Z 12013KT 34/14 A2995 RMK A01 T03380144  RH  031%=      5-min Rain = 0
KPD4 072316Z 11013KT 34/14 A2994 RMK A01 T03370144  RH  031%=      5-min Rain = 0
KPD4 072317Z 12014KT 34/14 A2994 RMK A01 T03370143  RH  031%=      5-min Rain = 0
KPD4 072318Z 13014KT 34/14 A2994 RMK A01 T03370144  RH  031%=      5-min Rain = 0
KPD4 072319Z 14016KT 34/15 A2994 RMK A01 T03370145  RH  032%=      5-min Rain = 0
KPD4 072320Z 14017KT 34/14 A2994 RMK A01 T03380143  RH  031%=      5-min Rain = 0
KPD4 072321Z 13016KT 34/14 A2994 RMK A01 T03370142  RH  031%=      5-min Rain = 0
KPD4 072322Z 13013KT 34/14 A2994 RMK A01 T03350142  RH  031%=      5-min Rain = 0
KPD4 072323Z 14012KT 33/14 A2994 RMK A01 T03340143  RH  032%=      5-min Rain = 0
KPD4 072324Z 14017KT 34/14 A2994 RMK A01 T03350144  RH  032%=      5-min Rain = 0
KPD4 072325Z 12018KT 34/14 A2994 RMK A01 T03350142  RH  031%=      5-min Rain = 0
KPD4 072326Z 13017KT 33/14 A2994 RMK A01 T03330141  RH  031%=      5-min Rain = 0
KPD4 072327Z 13016KT 33/14 A2994 RMK A01 T03320142  RH  032%=      5-min Rain = 0
KPD4 072328Z 12013KT 33/14 A2994 RMK A01 T03320141  RH  032%=      5-min Rain = 0
KPD4 072329Z 13013KT 33/14 A2994 RMK A01 T03320142  RH  032%=      5-min Rain = 0
KPD4 072330Z 13014KT 33/14 A2994 RMK A01 T03330142  RH  032%=      5-min Rain = 0
KPD4 072331Z 12012KT 33/14 A2994 RMK A01 T03320141  RH  032%=      5-min Rain = 0
KPD4 072332Z 13012KT 33/14 A2994 RMK A01 T03320141  RH  032%=      5-min Rain = 0
KPD4 072333Z 12013KT 33/14 A2994 RMK A01 T03340143  RH  032%=      5-min Rain = 0
KPD4 072334Z 12013KT 34/14 A2994 RMK A01 T03350141  RH  031%=      5-min Rain = 0
KPD4 072335Z 13013KT 33/14 A2994 RMK A01 T03340143  RH  032%=      5-min Rain = 0
KPD4 072336Z 13013G18KT 33/15 A2994 RMK A01 T03340145  RH  032%=      5-min Rain = 0
KPD4 072337Z 13013KT 34/14 A2994 RMK A01 T03350144  RH  032%=      5-min Rain = 0
KPD4 072338Z 13012G17KT 34/15 A2994 RMK A01 T03370145  RH  032%=      5-min Rain = 0
KPD4 072339Z 14015G20KT 34/15 A2993 RMK A01 T03380146  RH  031%=      5-min Rain = 0
KPD4 072340Z 13017KT 34/14 A2993 RMK A01 T03380143  RH  031%=      5-min Rain = 0
KPD4 072341Z 13018KT 34/14 A2994 RMK A01 T03360143  RH  031%=      5-min Rain = 0
KPD4 072342Z 12017KT 33/14 A2993 RMK A01 T03340143  RH  032%=      5-min Rain = 0
KPD4 072343Z 14014KT 33/14 A2993 RMK A01 T03330141  RH  031%=      5-min Rain = 0
KPD4 072344Z 14014KT 33/14 A2993 RMK A01 T03320142  RH  032%=      5-min Rain = 0
KPD4 072345Z 13013G20KT 33/14 A2993 RMK A01 T03330142  RH  032%=      5-min Rain = 0
KPD4 072346Z 13015KT 33/14 A2993 RMK A01 T03340142  RH  031%=      5-min Rain = 0
KPD4 072347Z 13015KT 34/14 A2993 RMK A01 T03350141  RH  031%=      5-min Rain = 0
KPD4 072348Z 12016KT 33/14 A2993 RMK A01 T03340143  RH  032%=      5-min Rain = 0
KPD4 072349Z 13016KT 33/14 A2993 RMK A01 T03330141  RH  031%=      5-min Rain = 0
KPD4 072350Z 12017KT 33/14 A2993 RMK A01 T03320141  RH  032%=      5-min Rain = 0
KPD4 072351Z 13016G21KT 33/14 A2993 RMK A01 T03310142  RH  032%=      5-min Rain = 0
KPD4 072352Z 13017KT 33/14 A2993 RMK A01 T03300142  RH  032%=      5-min Rain = 0
KPD4 072353Z 13018KT 33/14 A2993 RMK A01 T03300143  RH  032%=      5-min Rain = 0
KPD4 072354Z 13018KT 33/14 A2993 RMK A01 T03300143  RH  032%=      5-min Rain = 0
KPD4 072355Z 14018KT 33/14 A2993 RMK A01 T03290142  RH  032%=      5-min Rain = 0
KPD4 072356Z 13017KT 33/14 A2993 RMK A01 T03290143  RH  033%=      5-min Rain = 0
KPD4 072357Z 13018KT 33/14 A2993 RMK A01 T03290142  RH  032%=      5-min Rain = 0
KPD4 072358Z 14017KT 33/14 A2993 RMK A01 T03280142  RH  033%=      5-min Rain = 0
KPD4 072359Z 13016KT 33/14 A2993 RMK A01 T03280144  RH  033%=      5-min Rain = 0
KPD4 080000Z 13016KT 33/14 A2993 RMK A01 T03290144  RH  033%=      5-min Rain = 0
KPD4 080001Z 13017KT 33/14 A2993 RMK A01 T03280143  RH  033%=      5-min Rain = 0
KPD4 080002Z 13017KT 33/14 A2993 RMK A01 T03270144  RH  033%=      5-min Rain = 0
KPD4 080003Z 12017KT 33/14 A2993 RMK A01 T03270143  RH  033%=      5-min Rain = 0
KPD4 080004Z 13015KT 33/14 A2994 RMK A01 T03270144  RH  033%=      5-min Rain = 0
KPD4 080005Z 13015KT 33/14 A2994 RMK A01 T03270144  RH  033%=      5-min Rain = 0
KPD4 080006Z 13016KT 33/15 A2994 RMK A01 T03270145  RH  033%=      5-min Rain = 0
KPD4 080007Z 14013KT 33/14 A2994 RMK A01 T03270144  RH  033%=      5-min Rain = 0
KPD4 080008Z 13013KT 33/15 A2994 RMK A01 T03270146  RH  034%=      5-min Rain = 0
KPD4 080009Z 13016KT 33/15 A2994 RMK A01 T03260145  RH  033%=      5-min Rain = 0
KPD4 080010Z 14015KT 32/14 A2994 RMK A01 T03240144  RH  034%=      5-min Rain = 0
KPD4 080011Z 14015KT 32/15 A2994 RMK A01 T03230147  RH  035%=      5-min Rain = 0
KPD4 080012Z 13018KT 32/15 A2994 RMK A01 T03210146  RH  035%=      5-min Rain = 0
KPD4 080013Z 13016KT 32/15 A2994 RMK A01 T03200145  RH  035%=      5-min Rain = 0
KPD4 080014Z 14016KT 32/15 A2994 RMK A01 T03190145  RH  035%=      5-min Rain = 0
KPD4 080015Z 14014KT 32/15 A2994 RMK A01 T03190146  RH  035%=      5-min Rain = 0
KPD4 080016Z 13016KT 32/15 A2994 RMK A01 T03180146  RH  035%=      5-min Rain = 0
KPD4 080017Z 13015KT 32/15 A2994 RMK A01 T03180145  RH  035%=      5-min Rain = 0
KPD4 080018Z 12014KT 32/15 A2994 RMK A01 T03190145  RH  035%=      5-min Rain = 0
KPD4 080019Z 12014KT 32/15 A2994 RMK A01 T03200146  RH  035%=      5-min Rain = 0
KPD4 080020Z 13015KT 32/15 A2994 RMK A01 T03210147  RH  035%=      5-min Rain = 0
KPD4 080021Z 13014KT 32/15 A2994 RMK A01 T03220147  RH  035%=      5-min Rain = 0
KPD4 080022Z 12013KT 32/15 A2994 RMK A01 T03230148  RH  035%=      5-min Rain = 0
KPD4 080023Z 13015KT 32/15 A2994 RMK A01 T03240149  RH  035%=      5-min Rain = 0
KPD4 080024Z 13014KT 32/15 A2994 RMK A01 T03240147  RH  034%=      5-min Rain = 0
KPD4 080025Z 13014G19KT 32/15 A2994 RMK A01 T03240148  RH  035%=      5-min Rain = 0
KPD4 080026Z 13015KT 32/15 A2994 RMK A01 T03240148  RH  035%=      5-min Rain = 0
KPD4 080027Z 13014KT 32/15 A2995 RMK A01 T03240147  RH  034%=      5-min Rain = 0
KPD4 080028Z 14015KT 32/15 A2995 RMK A01 T03240148  RH  035%=      5-min Rain = 0
KPD4 080029Z 13012KT 32/15 A2995 RMK A01 T03240147  RH  034%=      5-min Rain = 0
KPD4 080030Z 12014KT 32/15 A2995 RMK A01 T03230148  RH  035%=      5-min Rain = 0
KPD4 080031Z 12015KT 32/15 A2995 RMK A01 T03230146  RH  034%=      5-min Rain = 0
KPD4 080032Z 12014KT 32/15 A2995 RMK A01 T03230147  RH  035%=      5-min Rain = 0
KPD4 080033Z 13014KT 32/15 A2995 RMK A01 T03220147  RH  035%=      5-min Rain = 0
KPD4 080034Z 13013KT 32/15 A2995 RMK A01 T03210148  RH  035%=      5-min Rain = 0
KPD4 080035Z 13012KT 32/15 A2995 RMK A01 T03200149  RH  036%=      5-min Rain = 0
KPD4 080036Z 13015KT 32/15 A2995 RMK A01 T03180148  RH  036%=      5-min Rain = 0
KPD4 080037Z 13015KT 32/15 A2995 RMK A01 T03170147  RH  036%=      5-min Rain = 0
KPD4 080038Z 13014KT 32/15 A2995 RMK A01 T03160146  RH  036%=      5-min Rain = 0
KPD4 080039Z 13013KT 32/15 A2995 RMK A01 T03160147  RH  036%=      5-min Rain = 0
KPD4 080040Z 12012KT 32/15 A2995 RMK A01 T03150148  RH  036%=      5-min Rain = 0
KPD4 080041Z 13014KT 32/15 A2995 RMK A01 T03150149  RH  037%=      5-min Rain = 0
KPD4 080042Z 13014KT 31/15 A2995 RMK A01 T03140148  RH  037%=      5-min Rain = 0
KPD4 080043Z 13013KT 31/15 A2995 RMK A01 T03130148  RH  037%=      5-min Rain = 0
KPD4 080044Z 13012KT 31/15 A2995 RMK A01 T03130148  RH  037%=      5-min Rain = 0
KPD4 080045Z 13013KT 31/15 A2996 RMK A01 T03120148  RH  037%=      5-min Rain = 0
KPD4 080046Z 13012KT 31/15 A2996 RMK A01 T03120148  RH  037%=      5-min Rain = 0
KPD4 080047Z 14012KT 31/15 A2996 RMK A01 T03120149  RH  037%=      5-min Rain = 0
KPD4 080048Z 14012KT 31/15 A2996 RMK A01 T03110149  RH  037%=      5-min Rain = 0
KPD4 080049Z 13012KT 31/15 A2996 RMK A01 T03100149  RH  038%=      5-min Rain = 0
KPD4 080050Z 14014KT 31/15 A2996 RMK A01 T03100149  RH  038%=      5-min Rain = 0
KPD4 080051Z 14012KT 31/15 A2996 RMK A01 T03100150  RH  038%=      5-min Rain = 0
KPD4 080052Z 13013KT 31/15 A2996 RMK A01 T03090150  RH  038%=      5-min Rain = 0
KPD4 080053Z 13013KT 31/15 A2996 RMK A01 T03090150  RH  038%=      5-min Rain = 0
KPD4 080054Z 13014KT 31/15 A2996 RMK A01 T03080149  RH  038%=      5-min Rain = 0
KPD4 080055Z 13014KT 31/15 A2996 RMK A01 T03080150  RH  038%=      5-min Rain = 0
KPD4 080056Z 13016KT 31/15 A2996 RMK A01 T03080150  RH  038%=      5-min Rain = 0
KPD4 080057Z 13012KT 31/15 A2996 RMK A01 T03090151  RH  039%=      5-min Rain = 0
KPD4 080058Z 13012KT 31/15 A2996 RMK A01 T03080151  RH  039%=      5-min Rain = 0
KPD4 080059Z 13014KT 31/15 A2996 RMK A01 T03070151  RH  039%=      5-min Rain = 0
KPD4 080100Z 14013KT 31/15 A2996 RMK A01 T03070151  RH  039%=      5-min Rain = 0
KPD4 080101Z 13014KT 31/15 A2996 RMK A01 T03070151  RH  039%=      5-min Rain = 0
KPD4 080102Z 13013KT 31/15 A2996 RMK A01 T03070151  RH  039%=      5-min Rain = 0
KPD4 080103Z 13012KT 31/15 A2996 RMK A01 T03070151  RH  039%=      5-min Rain = 0
KPD4 080104Z 13011KT 31/15 A2996 RMK A01 T03070152  RH  039%=      5-min Rain = 0
KPD4 080105Z 13010KT 31/15 A2996 RMK A01 T03060152  RH  039%=      5-min Rain = 0
KPD4 080106Z 13012KT 31/15 A2996 RMK A01 T03050152  RH  040%=      5-min Rain = 0
KPD4 080107Z 13012KT 31/15 A2996 RMK A01 T03050152  RH  040%=      5-min Rain = 0
KPD4 080108Z 13011KT 30/15 A2996 RMK A01 T03040152  RH  040%=      5-min Rain = 0
KPD4 080109Z 13010KT 31/15 A2996 RMK A01 T03050152  RH  040%=      5-min Rain = 0
KPD4 080110Z 12010G16KT 30/15 A2996 RMK A01 T03040153  RH  040%=      5-min Rain = 0
KPD4 080111Z 13013KT 30/15 A2996 RMK A01 T03030152  RH  040%=      5-min Rain = 0
KPD4 080112Z 13011KT 30/15 A2996 RMK A01 T03030152  RH  040%=      5-min Rain = 0
KPD4 080113Z 13011KT 30/15 A2996 RMK A01 T03030152  RH  040%=      5-min Rain = 0
KPD4 080114Z 13010KT 30/15 A2996 RMK A01 T03030153  RH  040%=      5-min Rain = 0
KPD4 080115Z 13009KT 30/15 A2996 RMK A01 T03020154  RH  041%=      5-min Rain = 0
KPD4 080116Z 13010KT 30/15 A2996 RMK A01 T03010154  RH  041%=      5-min Rain = 0
KPD4 080117Z 12009KT 30/15 A2996 RMK A01 T03010154  RH  041%=      5-min Rain = 0
KPD4 080118Z 12009KT 30/15 A2996 RMK A01 T03000154  RH  041%=      5-min Rain = 0
KPD4 080119Z 12010KT 30/16 A2996 RMK A01 T03000155  RH  042%=      5-min Rain = 0
KPD4 080120Z 13011KT 30/16 A2996 RMK A01 T02990156  RH  042%=      5-min Rain = 0
KPD4 080121Z 12012KT 30/16 A2996 RMK A01 T02990156  RH  042%=      5-min Rain = 0
KPD4 080122Z 13010KT 30/16 A2996 RMK A01 T02980155  RH  042%=      5-min Rain = 0
KPD4 080123Z 12010KT 30/15 A2996 RMK A01 T02990154  RH  042%=      5-min Rain = 0
KPD4 080124Z 12012KT 30/15 A2996 RMK A01 T02990154  RH  042%=      5-min Rain = 0
KPD4 080125Z 12010KT 30/16 A2996 RMK A01 T02980155  RH  042%=      5-min Rain = 0
KPD4 080126Z 13011KT 30/16 A2996 RMK A01 T02980155  RH  042%=      5-min Rain = 0
KPD4 080127Z 13011KT 30/16 A2996 RMK A01 T02980155  RH  042%=      5-min Rain = 0
KPD4 080128Z 13013KT 30/15 A2996 RMK A01 T02970154  RH  042%=      5-min Rain = 0
KPD4 080129Z 13011KT 30/15 A2996 RMK A01 T02970154  RH  042%=      5-min Rain = 0
KPD4 080130Z 13013KT 30/15 A2996 RMK A01 T02980154  RH  042%=      5-min Rain = 0
KPD4 080131Z 12012KT 30/15 A2996 RMK A01 T02970154  RH  042%=      5-min Rain = 0
KPD4 080132Z 13012KT 30/15 A2996 RMK A01 T02980154  RH  042%=      5-min Rain = 0
KPD4 080133Z 13012KT 30/15 A2996 RMK A01 T02970154  RH  042%=      5-min Rain = 0
KPD4 080134Z 12014KT 30/15 A2996 RMK A01 T02970154  RH  042%=      5-min Rain = 0
KPD4 080135Z 12014KT 30/15 A2996 RMK A01 T02970154  RH  042%=      5-min Rain = 0
KPD4 080136Z 13012KT 30/15 A2996 RMK A01 T02970153  RH  042%=      5-min Rain = 0
KPD4 080137Z 13013KT 30/15 A2996 RMK A01 T02970154  RH  042%=      5-min Rain = 0
KPD4 080138Z 12012KT 30/15 A2996 RMK A01 T02960154  RH  042%=      5-min Rain = 0
KPD4 080139Z 12012KT 30/16 A2996 RMK A01 T02950155  RH  043%=      5-min Rain = 0
KPD4 080140Z 12013KT 29/16 A2996 RMK A01 T02940155  RH  043%=      5-min Rain = 0
KPD4 080141Z 12012KT 29/15 A2996 RMK A01 T02940154  RH  043%=      5-min Rain = 0
KPD4 080142Z 12012KT 29/15 A2996 RMK A01 T02940154  RH  043%=      5-min Rain = 0
KPD4 080143Z 12011KT 29/16 A2996 RMK A01 T02940156  RH  043%=      5-min Rain = 0
KPD4 080144Z 13013KT 29/16 A2996 RMK A01 T02930156  RH  043%=      5-min Rain = 0
KPD4 080145Z 12014KT 29/15 A2996 RMK A01 T02920154  RH  043%=      5-min Rain = 0
KPD4 080146Z 12012KT 29/15 A2996 RMK A01 T02920154  RH  043%=      5-min Rain = 0
KPD4 080147Z 12011KT 29/16 A2996 RMK A01 T02920155  RH  043%=      5-min Rain = 0
KPD4 080148Z 12013KT 29/15 A2996 RMK A01 T02910154  RH  043%=      5-min Rain = 0
KPD4 080149Z 12014KT 29/15 A2996 RMK A01 T02910154  RH  043%=      5-min Rain = 0
KPD4 080150Z 12013KT 29/15 A2996 RMK A01 T02910153  RH  043%=      5-min Rain = 0
KPD4 080151Z 12013KT 29/15 A2996 RMK A01 T02910153  RH  043%=      5-min Rain = 0
KPD4 080152Z 13014KT 29/15 A2996 RMK A01 T02910152  RH  043%=      5-min Rain = 0
KPD4 080153Z 13013KT 29/15 A2996 RMK A01 T02910153  RH  043%=      5-min Rain = 0
KPD4 080154Z 12013KT 29/15 A2996 RMK A01 T02910154  RH  043%=      5-min Rain = 0
KPD4 080155Z 13014KT 29/15 A2996 RMK A01 T02900154  RH  043%=      5-min Rain = 0
KPD4 080156Z 12015KT 29/15 A2996 RMK A01 T02900153  RH  043%=      5-min Rain = 0
KPD4 080157Z 13013KT 29/15 A2996 RMK A01 T02900154  RH  044%=      5-min Rain = 0
KPD4 080158Z 13013KT 29/15 A2996 RMK A01 T02890154  RH  044%=      5-min Rain = 0
KPD4 080159Z 13013KT 29/15 A2996 RMK A01 T02880153  RH  044%=      5-min Rain = 0
KPD4 080200Z 13013KT 29/15 A2996 RMK A01 T02890153  RH  044%=      5-min Rain = 0
KPD4 080201Z 12013KT 29/15 A2996 RMK A01 T02890154  RH  044%=      5-min Rain = 0
KPD4 080202Z 13010KT 29/15 A2996 RMK A01 T02880154  RH  044%=      5-min Rain = 0
KPD4 080203Z 12011KT 29/15 A2996 RMK A01 T02870153  RH  044%=      5-min Rain = 0
KPD4 080204Z 13012KT 29/15 A2996 RMK A01 T02870153  RH  044%=      5-min Rain = 0
KPD4 080205Z 13012KT 29/15 A2996 RMK A01 T02870153  RH  044%=      5-min Rain = 0
KPD4 080206Z 13010KT 29/15 A2996 RMK A01 T02860152  RH  044%=      5-min Rain = 0
KPD4 080207Z 13011KT 29/15 A2996 RMK A01 T02860152  RH  044%=      5-min Rain = 0
KPD4 080208Z 13011KT 29/15 A2996 RMK A01 T02850152  RH  044%=      5-min Rain = 0
KPD4 080209Z 13010KT 29/15 A2996 RMK A01 T02850152  RH  044%=      5-min Rain = 0
KPD4 080210Z 13009KT 29/15 A2996 RMK A01 T02850153  RH  045%=      5-min Rain = 0
KPD4 080211Z 14010KT 28/15 A2996 RMK A01 T02840153  RH  045%=      5-min Rain = 0
KPD4 080212Z 13009KT 28/15 A2996 RMK A01 T02840154  RH  045%=      5-min Rain = 0
KPD4 080213Z 14009KT 28/15 A2996 RMK A01 T02830153  RH  045%=      5-min Rain = 0
KPD4 080214Z 14009KT 28/15 A2996 RMK A01 T02830153  RH  045%=      5-min Rain = 0
KPD4 080215Z 14009KT 28/15 A2996 RMK A01 T02820154  RH  046%=      5-min Rain = 0
KPD4 080216Z 14008KT 28/15 A2997 RMK A01 T02820154  RH  046%=      5-min Rain = 0
KPD4 080217Z 14008KT 28/16 A2997 RMK A01 T02810155  RH  046%=      5-min Rain = 0
KPD4 080218Z 14009KT 28/16 A2997 RMK A01 T02800155  RH  046%=      5-min Rain = 0
KPD4 080219Z 14009KT 28/16 A2997 RMK A01 T02790155  RH  047%=      5-min Rain = 0
KPD4 080220Z 14010KT 28/15 A2997 RMK A01 T02790154  RH  047%=      5-min Rain = 0
KPD4 080221Z 15010KT 28/16 A2997 RMK A01 T02790155  RH  047%=      5-min Rain = 0
KPD4 080222Z 15007KT 28/15 A2997 RMK A01 T02790154  RH  047%=      5-min Rain = 0
KPD4 080223Z 15008KT 28/16 A2997 RMK A01 T02790155  RH  047%=      5-min Rain = 0
KPD4 080224Z 15007KT 28/15 A2998 RMK A01 T02780154  RH  047%=      5-min Rain = 0
KPD4 080225Z 16007KT 28/16 A2998 RMK A01 T02780155  RH  047%=      5-min Rain = 0
KPD4 080226Z 18006KT 28/15 A2998 RMK A01 T02780154  RH  047%=      5-min Rain = 0
KPD4 080227Z 20005KT 28/15 A2999 RMK A01 T02780154  RH  047%=      5-min Rain = 0
KPD4 080228Z 22008KT 28/15 A2999 RMK A01 T02780154  RH  047%=      5-min Rain = 0
KPD4 080229Z 24011KT 28/15 A30 RMK A01 T02790154  RH  046%=      5-min Rain = 0
KPD4 080230Z 25015KT 28/15 A30 RMK A01 T02790154  RH  047%=      5-min Rain = 0
KPD4 080231Z 25012KT 28/15 A30 RMK A01 T02790153  RH  046%=      5-min Rain = 0
KPD4 080232Z 26010G15KT 28/15 A30 RMK A01 T02790151  RH  046%=      5-min Rain = 0
KPD4 080233Z 28019G28KT 28/15 A2999 RMK A01 T02790148  RH  045%=      5-min Rain = 0
KPD4 080234Z 29024G29KT 28/14 A2999 RMK A01 T02790143  RH  043%=      5-min Rain = 0
KPD4 080235Z 29017KT 28/14 A30 RMK A01 T02800141  RH  043%=      5-min Rain = 0
KPD4 080236Z 29018KT 28/14 A30 RMK A01 T02800144  RH  043%=      5-min Rain = 0
KPD4 080237Z 29021KT 28/14 A30 RMK A01 T02780141  RH  043%=      5-min Rain = 0
KPD4 080238Z 29022KT 28/14 A30 RMK A01 T02770139  RH  043%=      5-min Rain = 0
KPD4 080239Z 29023KT 28/14 A30 RMK A01 T02760139  RH  043%=      5-min Rain = 0
KPD4 080240Z 29020KT 28/14 A30 RMK A01 T02750139  RH  043%=      5-min Rain = 0
KPD4 080241Z 29020KT 28/14 A30 RMK A01 T02750138  RH  043%=      5-min Rain = 0
KPD4 080242Z 29020KT 27/14 A30 RMK A01 T02740138  RH  043%=      5-min Rain = 0
KPD4 080243Z 29017KT 27/14 A3001 RMK A01 T02740138  RH  043%=      5-min Rain = 0
KPD4 080244Z 29017KT 27/14 A3001 RMK A01 T02730137  RH  043%=      5-min Rain = 0
KPD4 080245Z 29015KT 27/14 A3001 RMK A01 T02730137  RH  043%=      5-min Rain = 0
KPD4 080246Z 29016KT 27/14 A3001 RMK A01 T02720137  RH  043%=      5-min Rain = 0
KPD4 080247Z 29014KT 27/14 A3001 RMK A01 T02710137  RH  043%=      5-min Rain = 0
KPD4 080248Z 29013KT 27/14 A3001 RMK A01 T02710137  RH  044%=      5-min Rain = 0
KPD4 080249Z 29015KT 27/14 A3001 RMK A01 T02700136  RH  044%=      5-min Rain = 0
KPD4 080250Z 29015KT 27/14 A3001 RMK A01 T02700135  RH  043%=      5-min Rain = 0
KPD4 080251Z 28012KT 27/13 A3001 RMK A01 T02700134  RH  043%=      5-min Rain = 0
KPD4 080252Z 29013KT 27/14 A3001 RMK A01 T02700135  RH  043%=      5-min Rain = 0
KPD4 080253Z 29012G17KT 27/14 A3001 RMK A01 T02690135  RH  044%=      5-min Rain = 0
KPD4 080254Z 29014KT 27/13 A3001 RMK A01 T02690134  RH  044%=      5-min Rain = 0
KPD4 080255Z 29015KT 27/13 A3001 RMK A01 T02680134  RH  044%=      5-min Rain = 0
KPD4 080256Z 29015KT 27/13 A3001 RMK A01 T02680133  RH  043%=      5-min Rain = 0
KPD4 080257Z 29013KT 27/13 A3001 RMK A01 T02680134  RH  044%=      5-min Rain = 0
KPD4 080258Z 29013KT 27/13 A3001 RMK A01 T02670134  RH  044%=      5-min Rain = 0
KPD4 080259Z 29011KT 27/13 A3001 RMK A01 T02670134  RH  044%=      5-min Rain = 0
KPD4 080300Z 29013KT 27/13 A3001 RMK A01 T02660134  RH  044%=      5-min Rain = 0
KPD4 080301Z 29012KT 27/13 A3001 RMK A01 T02660134  RH  044%=      5-min Rain = 0
KPD4 080302Z 29012KT 27/13 A3001 RMK A01 T02660134  RH  044%=      5-min Rain = 0
KPD4 080303Z 29011KT 27/13 A3001 RMK A01 T02650134  RH  044%=      5-min Rain = 0
KPD4 080304Z 29011KT 27/13 A3001 RMK A01 T02650134  RH  044%=      5-min Rain = 0
KPD4 080305Z 28010KT 26/13 A3001 RMK A01 T02640134  RH  045%=      5-min Rain = 0
KPD4 080306Z 28010KT 26/13 A3001 RMK A01 T02640134  RH  045%=      5-min Rain = 0
KPD4 080307Z 28013KT 26/13 A3001 RMK A01 T02630133  RH  045%=      5-min Rain = 0
KPD4 080308Z 29010KT 26/13 A3001 RMK A01 T02640133  RH  044%=      5-min Rain = 0
KPD4 080309Z 28013KT 26/13 A3001 RMK A01 T02640133  RH  044%=      5-min Rain = 0
KPD4 080310Z 29013KT 26/13 A3001 RMK A01 T02640132  RH  044%=      5-min Rain = 0
KPD4 080311Z 27011KT 26/13 A3001 RMK A01 T02640132  RH  044%=      5-min Rain = 0
KPD4 080312Z 27010KT 26/13 A3001 RMK A01 T02640132  RH  044%=      5-min Rain = 0
KPD4 080313Z 27009KT 26/13 A3001 RMK A01 T02640132  RH  044%=      5-min Rain = 0
KPD4 080314Z 27010KT 26/13 A3001 RMK A01 T02630133  RH  044%=      5-min Rain = 0
KPD4 080315Z 27009KT 26/13 A3001 RMK A01 T02630133  RH  045%=      5-min Rain = 0
KPD4 080316Z 28008KT 26/13 A3001 RMK A01 T02620133  RH  045%=      5-min Rain = 0
KPD4 080317Z 27008KT 26/13 A3001 RMK A01 T02610134  RH  045%=      5-min Rain = 0
KPD4 080318Z 27009KT 26/13 A3001 RMK A01 T02600133  RH  045%=      5-min Rain = 0
KPD4 080319Z 27009KT 26/13 A30 RMK A01 T02600132  RH  045%=      5-min Rain = 0
KPD4 080320Z 27009KT 26/13 A30 RMK A01 T02600131  RH  045%=      5-min Rain = 0
KPD4 080321Z 27010KT 26/13 A30 RMK A01 T02600130  RH  045%=      5-min Rain = 0
KPD4 080322Z 27012KT 26/13 A30 RMK A01 T02600129  RH  044%=      5-min Rain = 0
KPD4 080323Z 26010KT 26/13 A30 RMK A01 T02600128  RH  044%=      5-min Rain = 0
KPD4 080324Z 27012KT 26/13 A30 RMK A01 T02600127  RH  044%=      5-min Rain = 0
KPD4 080325Z 27010KT 26/13 A30 RMK A01 T02610127  RH  044%=      5-min Rain = 0
KPD4 080326Z 27009KT 26/13 A30 RMK A01 T02610127  RH  044%=      5-min Rain = 0
KPD4 080327Z 28010KT 26/13 A30 RMK A01 T02600127  RH  044%=      5-min Rain = 0
KPD4 080328Z 27012KT 26/13 A2999 RMK A01 T02600126  RH  043%=      5-min Rain = 0
KPD4 080329Z 27012KT 26/13 A2999 RMK A01 T02600126  RH  043%=      5-min Rain = 0
KPD4 080330Z 26010KT 26/13 A2999 RMK A01 T02610126  RH  043%=      5-min Rain = 0
KPD4 080331Z 26010KT 26/13 A2999 RMK A01 T02610126  RH  043%=      5-min Rain = 0
KPD4 080332Z 27007KT 26/13 A2999 RMK A01 T02600126  RH  043%=      5-min Rain = 0
KPD4 080333Z 26007KT 26/13 A2999 RMK A01 T02590126  RH  044%=      5-min Rain = 0
KPD4 080334Z 27008KT 26/13 A2999 RMK A01 T02580126  RH  044%=      5-min Rain = 0
KPD4 080335Z 26005KT 26/13 A2999 RMK A01 T02580126  RH  044%=      5-min Rain = 0
KPD4 080336Z 26005KT 26/13 A2999 RMK A01 T02580126  RH  044%=      5-min Rain = 0
KPD4 080337Z 24004KT 26/13 A2999 RMK A01 T02580127  RH  044%=      5-min Rain = 0
KPD4 080338Z 23004KT 26/13 A2999 RMK A01 T02560126  RH  044%=      5-min Rain = 0
KPD4 080339Z 23003KT 26/13 A2999 RMK A01 T02560126  RH  044%=      5-min Rain = 0
KPD4 080340Z 23003KT 26/13 A2999 RMK A01 T02550126  RH  045%=      5-min Rain = 0
KPD4 080341Z 18003KT 25/13 A2999 RMK A01 T02540126  RH  045%=      5-min Rain = 0
KPD4 080342Z 18003KT 25/13 A2999 RMK A01 T02540126  RH  045%=      5-min Rain = 0
KPD4 080343Z 15003KT 25/13 A2999 RMK A01 T02530126  RH  045%=      5-min Rain = 0
KPD4 080344Z 14004KT 25/13 A2999 RMK A01 T02520126  RH  046%=      5-min Rain = 0
KPD4 080345Z 12004KT 25/13 A2999 RMK A01 T02510127  RH  046%=      5-min Rain = 0
KPD4 080346Z 12005KT 25/13 A2998 RMK A01 T02500127  RH  046%=      5-min Rain = 0
KPD4 080347Z 13005KT 25/13 A2998 RMK A01 T02490127  RH  047%=      5-min Rain = 0
KPD4 080348Z 13006KT 25/13 A2998 RMK A01 T02480128  RH  047%=      5-min Rain = 0
KPD4 080349Z 13005KT 25/13 A2998 RMK A01 T02470129  RH  048%=      5-min Rain = 0
KPD4 080350Z 13006KT 25/13 A2998 RMK A01 T02470130  RH  048%=      5-min Rain = 0
KPD4 080351Z 13005KT 25/13 A2998 RMK A01 T02470131  RH  048%=      5-min Rain = 0
KPD4 080352Z 14006KT 25/13 A2998 RMK A01 T02460131  RH  049%=      5-min Rain = 0
KPD4 080353Z 14005KT 25/13 A2998 RMK A01 T02460132  RH  049%=      5-min Rain = 0
KPD4 080354Z 15004KT 25/13 A2998 RMK A01 T02460132  RH  049%=      5-min Rain = 0
KPD4 080355Z 16005KT 25/13 A2998 RMK A01 T02470133  RH  049%=      5-min Rain = 0
KPD4 080356Z 15006KT 25/13 A2998 RMK A01 T02470131  RH  049%=      5-min Rain = 0
KPD4 080357Z 15006KT 25/13 A2998 RMK A01 T02470130  RH  048%=      5-min Rain = 0
KPD4 080358Z 14007KT 25/13 A2998 RMK A01 T02470130  RH  048%=      5-min Rain = 0
KPD4 080359Z 14007KT 25/13 A2998 RMK A01 T02470130  RH  048%=      5-min Rain = 0
KPD4 080400Z 15007KT 25/13 A2998 RMK A01 T02460131  RH  048%=      5-min Rain = 0
KPD4 080401Z 16007KT 25/13 A2998 RMK A01 T02460132  RH  049%=      5-min Rain = 0
KPD4 080402Z 15007KT 25/13 A2998 RMK A01 T02460132  RH  049%=      5-min Rain = 0
KPD4 080403Z 15007KT 25/13 A2998 RMK A01 T02450132  RH  049%=      5-min Rain = 0
KPD4 080404Z 15008KT 25/13 A2998 RMK A01 T02450132  RH  049%=      5-min Rain = 0
KPD4 080405Z 15008KT 25/13 A2998 RMK A01 T02450133  RH  050%=      5-min Rain = 0
KPD4 080406Z 15009KT 25/13 A2998 RMK A01 T02450133  RH  050%=      5-min Rain = 0
KPD4 080407Z 15010KT 25/13 A2998 RMK A01 T02450133  RH  050%=      5-min Rain = 0
KPD4 080408Z 15009KT 25/13 A2997 RMK A01 T02450132  RH  049%=      5-min Rain = 0
KPD4 080409Z 14008KT 25/13 A2997 RMK A01 T02460132  RH  049%=      5-min Rain = 0
KPD4 080410Z 14009KT 25/13 A2997 RMK A01 T02470132  RH  049%=      5-min Rain = 0
KPD4 080411Z 15008KT 25/13 A2997 RMK A01 T02470131  RH  048%=      5-min Rain = 0
KPD4 080412Z 15007KT 25/13 A2997 RMK A01 T02470131  RH  048%=      5-min Rain = 0
KPD4 080413Z 15009KT 25/13 A2997 RMK A01 T02470131  RH  048%=      5-min Rain = 0
KPD4 080414Z 16009KT 25/13 A2997 RMK A01 T02470131  RH  048%=      5-min Rain = 0
KPD4 080415Z 16010KT 25/13 A2997 RMK A01 T02470131  RH  048%=      5-min Rain = 0
KPD4 080416Z 16010KT 25/13 A2997 RMK A01 T02470131  RH  048%=      5-min Rain = 0
KPD4 080417Z 16010KT 25/13 A2996 RMK A01 T02470130  RH  048%=      5-min Rain = 0
KPD4 080418Z 16010KT 25/13 A2996 RMK A01 T02470130  RH  048%=      5-min Rain = 0
KPD4 080419Z 16010KT 25/13 A2996 RMK A01 T02470130  RH  048%=      5-min Rain = 0
KPD4 080420Z 16010KT 25/13 A2996 RMK A01 T02470129  RH  048%=      5-min Rain = 0
KPD4 080421Z 15010KT 25/13 A2996 RMK A01 T02470129  RH  048%=      5-min Rain = 0
KPD4 080422Z 15011KT 25/13 A2996 RMK A01 T02470129  RH  048%=      5-min Rain = 0
KPD4 080423Z 15012KT 25/13 A2996 RMK A01 T02470130  RH  048%=      5-min Rain = 0
KPD4 080424Z 15010KT 25/13 A2996 RMK A01 T02470130  RH  048%=      5-min Rain = 0
KPD4 080425Z 15010KT 25/13 A2996 RMK A01 T02470131  RH  048%=      5-min Rain = 0
KPD4 080426Z 15009KT 25/13 A2996 RMK A01 T02470132  RH  049%=      5-min Rain = 0
KPD4 080427Z 15009KT 25/13 A2995 RMK A01 T02470132  RH  049%=      5-min Rain = 0
KPD4 080428Z 15010KT 25/13 A2995 RMK A01 T02460132  RH  049%=      5-min Rain = 0
KPD4 080429Z 15010KT 25/13 A2995 RMK A01 T02460132  RH  049%=      5-min Rain = 0
KPD4 080430Z 15011KT 25/13 A2995 RMK A01 T02460132  RH  049%=      5-min Rain = 0
KPD4 080431Z 15010KT 25/13 A2995 RMK A01 T02460133  RH  049%=      5-min Rain = 0
KPD4 080432Z 15010KT 25/13 A2995 RMK A01 T02450134  RH  050%=      5-min Rain = 0
KPD4 080433Z 15010KT 25/14 A2995 RMK A01 T02450135  RH  050%=      5-min Rain = 0
KPD4 080434Z 15010KT 24/14 A2995 RMK A01 T02430135  RH  051%=      5-min Rain = 0
KPD4 080435Z 15009KT 24/14 A2995 RMK A01 T02430135  RH  051%=      5-min Rain = 0
KPD4 080436Z 16010KT 24/14 A2995 RMK A01 T02420135  RH  051%=      5-min Rain = 0
KPD4 080437Z 15011KT 24/14 A2994 RMK A01 T02420136  RH  052%=      5-min Rain = 0
KPD4 080438Z 15011KT 24/14 A2994 RMK A01 T02420136  RH  052%=      5-min Rain = 0
KPD4 080439Z 15011KT 24/14 A2994 RMK A01 T02420136  RH  052%=      5-min Rain = 0
KPD4 080440Z 16011KT 24/14 A2994 RMK A01 T02420136  RH  052%=      5-min Rain = 0
KPD4 080441Z 15012KT 24/14 A2993 RMK A01 T02420136  RH  051%=      5-min Rain = 0
KPD4 080442Z 15012KT 24/14 A2993 RMK A01 T02430136  RH  051%=      5-min Rain = 0
KPD4 080443Z 15013KT 24/14 A2993 RMK A01 T02430135  RH  051%=      5-min Rain = 0
KPD4 080444Z 15014KT 24/14 A2993 RMK A01 T02430135  RH  051%=      5-min Rain = 0
KPD4 080445Z 14014KT 24/14 A2992 RMK A01 T02440136  RH  051%=      5-min Rain = 0
KPD4 080446Z 14015KT 24/14 A2992 RMK A01 T02440135  RH  051%=      5-min Rain = 0
KPD4 080447Z 14013KT 25/14 A2992 RMK A01 T02450136  RH  051%=      5-min Rain = 0
KPD4 080448Z 15014KT 25/14 A2992 RMK A01 T02450136  RH  051%=      5-min Rain = 0
KPD4 080449Z 15014KT 24/14 A2992 RMK A01 T02440137  RH  051%=      5-min Rain = 0
KPD4 080450Z 15013KT 24/14 A2992 RMK A01 T02440137  RH  051%=      5-min Rain = 0
KPD4 080451Z 16016KT 24/14 A2992 RMK A01 T02440137  RH  051%=      5-min Rain = 0
KPD4 080452Z 16013KT 25/14 A2992 RMK A01 T02450137  RH  051%=      5-min Rain = 0
KPD4 080453Z 16013KT 25/14 A2992 RMK A01 T02450137  RH  051%=      5-min Rain = 0
KPD4 080454Z 15014G19KT 25/14 A2992 RMK A01 T02450137  RH  051%=      5-min Rain = 0
KPD4 080455Z 16015KT 25/14 A2992 RMK A01 T02460135  RH  050%=      5-min Rain = 0
KPD4 080456Z 16016KT 25/14 A2992 RMK A01 T02470135  RH  049%=      5-min Rain = 0
KPD4 080457Z 16017KT 25/13 A2992 RMK A01 T02480134  RH  049%=      5-min Rain = 0
KPD4 080458Z 15015KT 25/14 A2991 RMK A01 T02490135  RH  049%=      5-min Rain = 0
KPD4 080459Z 15014KT 25/14 A2991 RMK A01 T02490136  RH  049%=      5-min Rain = 0

Page generated in 0.0706 seconds.